<?xml version="1.0" encoding="UTF-8" standalone="no" ?>
<gpx xmlns="http://www.topografix.com/GPX/1/1" xmlns:xsi="http://www.w3.org/2001/XMLSchema-instance" xsi:schemaLocation="http://www.topografix.com/GPX/1/1 http://www.topografix.com/GPX/1/1/gpx.xsd" version="1.1" creator="VisuGPX - https://www.visugpx.com">
  <metadata>
    <name>83 - L - Ampus</name>
    <desc><![CDATA[83 - L - Ampus - Col de la Grange, l'Englugi, Rigaud, Claret 2/12/2024]]></desc>
  </metadata>
  <trk>
    <name><![CDATA[Ampus englugi 2024-12-02-01]]></name>
    <trkseg>
      <trkpt lat="43.59061" lon="6.38741">
        <ele>609</ele>
        <time>2024-12-02T08:32:07Z</time>
      </trkpt>
      <trkpt lat="43.59062" lon="6.3874">
        <ele>615</ele>
        <time>2024-12-02T08:32:04Z</time>
      </trkpt>
      <trkpt lat="43.59062" lon="6.3874">
        <ele>615</ele>
        <time>2024-12-02T08:32:04Z</time>
      </trkpt>
      <trkpt lat="43.59054" lon="6.38745">
        <ele>604.1</ele>
        <time>2024-12-02T08:32:31Z</time>
      </trkpt>
      <trkpt lat="43.59045" lon="6.38749">
        <ele>603.8</ele>
        <time>2024-12-02T08:32:51Z</time>
      </trkpt>
      <trkpt lat="43.59036" lon="6.38752">
        <ele>603.7</ele>
        <time>2024-12-02T08:33:02Z</time>
      </trkpt>
      <trkpt lat="43.59027" lon="6.38756">
        <ele>603.6</ele>
        <time>2024-12-02T08:33:12Z</time>
      </trkpt>
      <trkpt lat="43.59018" lon="6.38759">
        <ele>603.4</ele>
        <time>2024-12-02T08:33:22Z</time>
      </trkpt>
      <trkpt lat="43.59009" lon="6.38763">
        <ele>603.4</ele>
        <time>2024-12-02T08:33:31Z</time>
      </trkpt>
      <trkpt lat="43.59" lon="6.38767">
        <ele>603</ele>
        <time>2024-12-02T08:33:41Z</time>
      </trkpt>
      <trkpt lat="43.58991" lon="6.3877">
        <ele>603.1</ele>
        <time>2024-12-02T08:33:49Z</time>
      </trkpt>
      <trkpt lat="43.58982" lon="6.38774">
        <ele>603.4</ele>
        <time>2024-12-02T08:33:58Z</time>
      </trkpt>
      <trkpt lat="43.58973" lon="6.38778">
        <ele>603.3</ele>
        <time>2024-12-02T08:34:07Z</time>
      </trkpt>
      <trkpt lat="43.58964" lon="6.38781">
        <ele>603.3</ele>
        <time>2024-12-02T08:34:16Z</time>
      </trkpt>
      <trkpt lat="43.58955" lon="6.38786">
        <ele>603.2</ele>
        <time>2024-12-02T08:34:27Z</time>
      </trkpt>
      <trkpt lat="43.58954" lon="6.38798">
        <ele>602.7</ele>
        <time>2024-12-02T08:34:46Z</time>
      </trkpt>
      <trkpt lat="43.58957" lon="6.3881">
        <ele>602.2</ele>
        <time>2024-12-02T08:34:56Z</time>
      </trkpt>
      <trkpt lat="43.5896" lon="6.38823">
        <ele>601.8</ele>
        <time>2024-12-02T08:35:06Z</time>
      </trkpt>
      <trkpt lat="43.58963" lon="6.38835">
        <ele>601.4</ele>
        <time>2024-12-02T08:35:19Z</time>
      </trkpt>
      <trkpt lat="43.58966" lon="6.38847">
        <ele>601.1</ele>
        <time>2024-12-02T08:35:29Z</time>
      </trkpt>
      <trkpt lat="43.58969" lon="6.38859">
        <ele>600.9</ele>
        <time>2024-12-02T08:35:38Z</time>
      </trkpt>
      <trkpt lat="43.58971" lon="6.38872">
        <ele>600</ele>
        <time>2024-12-02T08:35:47Z</time>
      </trkpt>
      <trkpt lat="43.58975" lon="6.38884">
        <ele>600</ele>
        <time>2024-12-02T08:35:56Z</time>
      </trkpt>
      <trkpt lat="43.58978" lon="6.38897">
        <ele>600.6</ele>
        <time>2024-12-02T08:36:05Z</time>
      </trkpt>
      <trkpt lat="43.58981" lon="6.38909">
        <ele>600</ele>
        <time>2024-12-02T08:36:14Z</time>
      </trkpt>
      <trkpt lat="43.58986" lon="6.3892">
        <ele>600.2</ele>
        <time>2024-12-02T08:36:24Z</time>
      </trkpt>
      <trkpt lat="43.58995" lon="6.38927">
        <ele>600.5</ele>
        <time>2024-12-02T08:36:33Z</time>
      </trkpt>
      <trkpt lat="43.59003" lon="6.38929">
        <ele>600.3</ele>
        <time>2024-12-02T08:36:44Z</time>
      </trkpt>
      <trkpt lat="43.59013" lon="6.3893">
        <ele>599.8</ele>
        <time>2024-12-02T08:36:53Z</time>
      </trkpt>
      <trkpt lat="43.59022" lon="6.38931">
        <ele>600.1</ele>
        <time>2024-12-02T08:37:01Z</time>
      </trkpt>
      <trkpt lat="43.59031" lon="6.38934">
        <ele>599.5</ele>
        <time>2024-12-02T08:37:11Z</time>
      </trkpt>
      <trkpt lat="43.5904" lon="6.38935">
        <ele>599.6</ele>
        <time>2024-12-02T08:37:20Z</time>
      </trkpt>
      <trkpt lat="43.59049" lon="6.38938">
        <ele>599.1</ele>
        <time>2024-12-02T08:37:30Z</time>
      </trkpt>
      <trkpt lat="43.59058" lon="6.38941">
        <ele>599.4</ele>
        <time>2024-12-02T08:37:40Z</time>
      </trkpt>
      <trkpt lat="43.59068" lon="6.38944">
        <ele>599.3</ele>
        <time>2024-12-02T08:37:51Z</time>
      </trkpt>
      <trkpt lat="43.59077" lon="6.38947">
        <ele>598.7</ele>
        <time>2024-12-02T08:38:00Z</time>
      </trkpt>
      <trkpt lat="43.59086" lon="6.3895">
        <ele>598.7</ele>
        <time>2024-12-02T08:38:09Z</time>
      </trkpt>
      <trkpt lat="43.59094" lon="6.38954">
        <ele>598.7</ele>
        <time>2024-12-02T08:38:18Z</time>
      </trkpt>
      <trkpt lat="43.59104" lon="6.38957">
        <ele>599.1</ele>
        <time>2024-12-02T08:38:29Z</time>
      </trkpt>
      <trkpt lat="43.59113" lon="6.38956">
        <ele>598.8</ele>
        <time>2024-12-02T08:38:36Z</time>
      </trkpt>
      <trkpt lat="43.59123" lon="6.38956">
        <ele>598.3</ele>
        <time>2024-12-02T08:38:45Z</time>
      </trkpt>
      <trkpt lat="43.59132" lon="6.38953">
        <ele>598.2</ele>
        <time>2024-12-02T08:38:55Z</time>
      </trkpt>
      <trkpt lat="43.59141" lon="6.38947">
        <ele>597.8</ele>
        <time>2024-12-02T08:39:04Z</time>
      </trkpt>
      <trkpt lat="43.59149" lon="6.38941">
        <ele>598.1</ele>
        <time>2024-12-02T08:39:13Z</time>
      </trkpt>
      <trkpt lat="43.59158" lon="6.38938">
        <ele>597.7</ele>
        <time>2024-12-02T08:39:22Z</time>
      </trkpt>
      <trkpt lat="43.59167" lon="6.38937">
        <ele>598.2</ele>
        <time>2024-12-02T08:39:31Z</time>
      </trkpt>
      <trkpt lat="43.59176" lon="6.38939">
        <ele>597.7</ele>
        <time>2024-12-02T08:39:41Z</time>
      </trkpt>
      <trkpt lat="43.59185" lon="6.38939">
        <ele>597.6</ele>
        <time>2024-12-02T08:39:50Z</time>
      </trkpt>
      <trkpt lat="43.59195" lon="6.38938">
        <ele>597.6</ele>
        <time>2024-12-02T08:40:01Z</time>
      </trkpt>
      <trkpt lat="43.59205" lon="6.38938">
        <ele>597.7</ele>
        <time>2024-12-02T08:40:11Z</time>
      </trkpt>
      <trkpt lat="43.59213" lon="6.38935">
        <ele>597.4</ele>
        <time>2024-12-02T08:40:25Z</time>
      </trkpt>
      <trkpt lat="43.59222" lon="6.38929">
        <ele>596.8</ele>
        <time>2024-12-02T08:40:35Z</time>
      </trkpt>
      <trkpt lat="43.59231" lon="6.38925">
        <ele>597.4</ele>
        <time>2024-12-02T08:40:47Z</time>
      </trkpt>
      <trkpt lat="43.59241" lon="6.38922">
        <ele>597.1</ele>
        <time>2024-12-02T08:40:56Z</time>
      </trkpt>
      <trkpt lat="43.5925" lon="6.38922">
        <ele>597.4</ele>
        <time>2024-12-02T08:41:06Z</time>
      </trkpt>
      <trkpt lat="43.5926" lon="6.38922">
        <ele>597.3</ele>
        <time>2024-12-02T08:41:16Z</time>
      </trkpt>
      <trkpt lat="43.59269" lon="6.38924">
        <ele>596.9</ele>
        <time>2024-12-02T08:41:25Z</time>
      </trkpt>
      <trkpt lat="43.59279" lon="6.38925">
        <ele>596.6</ele>
        <time>2024-12-02T08:41:35Z</time>
      </trkpt>
      <trkpt lat="43.59286" lon="6.38915">
        <ele>597</ele>
        <time>2024-12-02T08:41:46Z</time>
      </trkpt>
      <trkpt lat="43.5929" lon="6.38904">
        <ele>597.5</ele>
        <time>2024-12-02T08:41:57Z</time>
      </trkpt>
      <trkpt lat="43.59294" lon="6.38892">
        <ele>597.2</ele>
        <time>2024-12-02T08:42:07Z</time>
      </trkpt>
      <trkpt lat="43.59298" lon="6.38881">
        <ele>597.1</ele>
        <time>2024-12-02T08:42:17Z</time>
      </trkpt>
      <trkpt lat="43.59303" lon="6.3887">
        <ele>597.5</ele>
        <time>2024-12-02T08:42:28Z</time>
      </trkpt>
      <trkpt lat="43.59309" lon="6.38859">
        <ele>597.3</ele>
        <time>2024-12-02T08:42:38Z</time>
      </trkpt>
      <trkpt lat="43.59315" lon="6.38849">
        <ele>597.1</ele>
        <time>2024-12-02T08:42:47Z</time>
      </trkpt>
      <trkpt lat="43.59322" lon="6.3884">
        <ele>597.2</ele>
        <time>2024-12-02T08:42:56Z</time>
      </trkpt>
      <trkpt lat="43.59329" lon="6.3883">
        <ele>597.1</ele>
        <time>2024-12-02T08:43:07Z</time>
      </trkpt>
      <trkpt lat="43.59335" lon="6.3882">
        <ele>597.2</ele>
        <time>2024-12-02T08:43:17Z</time>
      </trkpt>
      <trkpt lat="43.59342" lon="6.38811">
        <ele>597.2</ele>
        <time>2024-12-02T08:43:25Z</time>
      </trkpt>
      <trkpt lat="43.59348" lon="6.38801">
        <ele>597.1</ele>
        <time>2024-12-02T08:43:34Z</time>
      </trkpt>
      <trkpt lat="43.59353" lon="6.38789">
        <ele>597</ele>
        <time>2024-12-02T08:43:43Z</time>
      </trkpt>
      <trkpt lat="43.59358" lon="6.38777">
        <ele>596.4</ele>
        <time>2024-12-02T08:43:52Z</time>
      </trkpt>
      <trkpt lat="43.59363" lon="6.38765">
        <ele>597.1</ele>
        <time>2024-12-02T08:44:01Z</time>
      </trkpt>
      <trkpt lat="43.59367" lon="6.38754">
        <ele>597.2</ele>
        <time>2024-12-02T08:44:10Z</time>
      </trkpt>
      <trkpt lat="43.59372" lon="6.38743">
        <ele>597</ele>
        <time>2024-12-02T08:44:19Z</time>
      </trkpt>
      <trkpt lat="43.59376" lon="6.3873">
        <ele>597</ele>
        <time>2024-12-02T08:44:28Z</time>
      </trkpt>
      <trkpt lat="43.5938" lon="6.38718">
        <ele>597.2</ele>
        <time>2024-12-02T08:44:37Z</time>
      </trkpt>
      <trkpt lat="43.59384" lon="6.38707">
        <ele>596.8</ele>
        <time>2024-12-02T08:44:47Z</time>
      </trkpt>
      <trkpt lat="43.59389" lon="6.38696">
        <ele>596.9</ele>
        <time>2024-12-02T08:44:57Z</time>
      </trkpt>
      <trkpt lat="43.59394" lon="6.38684">
        <ele>597.1</ele>
        <time>2024-12-02T08:45:08Z</time>
      </trkpt>
      <trkpt lat="43.59399" lon="6.38674">
        <ele>597</ele>
        <time>2024-12-02T08:45:19Z</time>
      </trkpt>
      <trkpt lat="43.59403" lon="6.38661">
        <ele>596.8</ele>
        <time>2024-12-02T08:45:30Z</time>
      </trkpt>
      <trkpt lat="43.59407" lon="6.38649">
        <ele>596.7</ele>
        <time>2024-12-02T08:45:40Z</time>
      </trkpt>
      <trkpt lat="43.5941" lon="6.38637">
        <ele>596.7</ele>
        <time>2024-12-02T08:45:49Z</time>
      </trkpt>
      <trkpt lat="43.59413" lon="6.38625">
        <ele>596.8</ele>
        <time>2024-12-02T08:45:58Z</time>
      </trkpt>
      <trkpt lat="43.59417" lon="6.38612">
        <ele>597.4</ele>
        <time>2024-12-02T08:46:07Z</time>
      </trkpt>
      <trkpt lat="43.5942" lon="6.38599">
        <ele>597.2</ele>
        <time>2024-12-02T08:46:16Z</time>
      </trkpt>
      <trkpt lat="43.59426" lon="6.38589">
        <ele>597.1</ele>
        <time>2024-12-02T08:46:23Z</time>
      </trkpt>
      <trkpt lat="43.59431" lon="6.38577">
        <ele>597</ele>
        <time>2024-12-02T08:46:32Z</time>
      </trkpt>
      <trkpt lat="43.59435" lon="6.38566">
        <ele>596.9</ele>
        <time>2024-12-02T08:46:41Z</time>
      </trkpt>
      <trkpt lat="43.5944" lon="6.38554">
        <ele>596.7</ele>
        <time>2024-12-02T08:46:50Z</time>
      </trkpt>
      <trkpt lat="43.59446" lon="6.38544">
        <ele>596.7</ele>
        <time>2024-12-02T08:46:59Z</time>
      </trkpt>
      <trkpt lat="43.59451" lon="6.38533">
        <ele>596.4</ele>
        <time>2024-12-02T08:47:08Z</time>
      </trkpt>
      <trkpt lat="43.59454" lon="6.38521">
        <ele>596.9</ele>
        <time>2024-12-02T08:47:17Z</time>
      </trkpt>
      <trkpt lat="43.59457" lon="6.38508">
        <ele>596.3</ele>
        <time>2024-12-02T08:47:27Z</time>
      </trkpt>
      <trkpt lat="43.59459" lon="6.38495">
        <ele>596.1</ele>
        <time>2024-12-02T08:47:36Z</time>
      </trkpt>
      <trkpt lat="43.5946" lon="6.38481">
        <ele>596.5</ele>
        <time>2024-12-02T08:47:46Z</time>
      </trkpt>
      <trkpt lat="43.59462" lon="6.38469">
        <ele>596.6</ele>
        <time>2024-12-02T08:47:55Z</time>
      </trkpt>
      <trkpt lat="43.59464" lon="6.38456">
        <ele>596.5</ele>
        <time>2024-12-02T08:48:04Z</time>
      </trkpt>
      <trkpt lat="43.59466" lon="6.38443">
        <ele>597</ele>
        <time>2024-12-02T08:48:13Z</time>
      </trkpt>
      <trkpt lat="43.5947" lon="6.3843">
        <ele>596.6</ele>
        <time>2024-12-02T08:48:23Z</time>
      </trkpt>
      <trkpt lat="43.59474" lon="6.38419">
        <ele>596.4</ele>
        <time>2024-12-02T08:48:31Z</time>
      </trkpt>
      <trkpt lat="43.59479" lon="6.38408">
        <ele>596.5</ele>
        <time>2024-12-02T08:48:40Z</time>
      </trkpt>
      <trkpt lat="43.59484" lon="6.38397">
        <ele>596.4</ele>
        <time>2024-12-02T08:48:49Z</time>
      </trkpt>
      <trkpt lat="43.5949" lon="6.38386">
        <ele>596.6</ele>
        <time>2024-12-02T08:48:58Z</time>
      </trkpt>
      <trkpt lat="43.59494" lon="6.38374">
        <ele>596.5</ele>
        <time>2024-12-02T08:49:07Z</time>
      </trkpt>
      <trkpt lat="43.59499" lon="6.38364">
        <ele>596.1</ele>
        <time>2024-12-02T08:49:16Z</time>
      </trkpt>
      <trkpt lat="43.59506" lon="6.38354">
        <ele>596.2</ele>
        <time>2024-12-02T08:49:25Z</time>
      </trkpt>
      <trkpt lat="43.59513" lon="6.38346">
        <ele>596.6</ele>
        <time>2024-12-02T08:49:34Z</time>
      </trkpt>
      <trkpt lat="43.5952" lon="6.38337">
        <ele>596.3</ele>
        <time>2024-12-02T08:49:43Z</time>
      </trkpt>
      <trkpt lat="43.59525" lon="6.38326">
        <ele>596.5</ele>
        <time>2024-12-02T08:49:52Z</time>
      </trkpt>
      <trkpt lat="43.59528" lon="6.38313">
        <ele>596</ele>
        <time>2024-12-02T08:50:01Z</time>
      </trkpt>
      <trkpt lat="43.5953" lon="6.383">
        <ele>596.1</ele>
        <time>2024-12-02T08:50:10Z</time>
      </trkpt>
      <trkpt lat="43.59534" lon="6.38287">
        <ele>595.9</ele>
        <time>2024-12-02T08:50:19Z</time>
      </trkpt>
      <trkpt lat="43.5954" lon="6.38276">
        <ele>596</ele>
        <time>2024-12-02T08:50:28Z</time>
      </trkpt>
      <trkpt lat="43.59548" lon="6.3827">
        <ele>595.8</ele>
        <time>2024-12-02T08:50:36Z</time>
      </trkpt>
      <trkpt lat="43.59555" lon="6.38262">
        <ele>595.6</ele>
        <time>2024-12-02T08:50:45Z</time>
      </trkpt>
      <trkpt lat="43.59563" lon="6.38256">
        <ele>595.5</ele>
        <time>2024-12-02T08:50:54Z</time>
      </trkpt>
      <trkpt lat="43.59571" lon="6.38247">
        <ele>595.2</ele>
        <time>2024-12-02T08:51:05Z</time>
      </trkpt>
      <trkpt lat="43.59579" lon="6.3824">
        <ele>595.3</ele>
        <time>2024-12-02T08:51:39Z</time>
      </trkpt>
      <trkpt lat="43.59586" lon="6.38232">
        <ele>595.3</ele>
        <time>2024-12-02T08:51:50Z</time>
      </trkpt>
      <trkpt lat="43.59594" lon="6.38225">
        <ele>595.3</ele>
        <time>2024-12-02T08:52:02Z</time>
      </trkpt>
      <trkpt lat="43.59602" lon="6.3822">
        <ele>595.1</ele>
        <time>2024-12-02T08:52:25Z</time>
      </trkpt>
      <trkpt lat="43.59609" lon="6.38212">
        <ele>594.9</ele>
        <time>2024-12-02T08:52:34Z</time>
      </trkpt>
      <trkpt lat="43.59617" lon="6.38206">
        <ele>594.8</ele>
        <time>2024-12-02T08:52:43Z</time>
      </trkpt>
      <trkpt lat="43.59625" lon="6.38199">
        <ele>594.3</ele>
        <time>2024-12-02T08:52:52Z</time>
      </trkpt>
      <trkpt lat="43.59633" lon="6.38191">
        <ele>594.2</ele>
        <time>2024-12-02T08:53:01Z</time>
      </trkpt>
      <trkpt lat="43.59641" lon="6.38185">
        <ele>594</ele>
        <time>2024-12-02T08:53:10Z</time>
      </trkpt>
      <trkpt lat="43.59649" lon="6.38177">
        <ele>593.7</ele>
        <time>2024-12-02T08:53:19Z</time>
      </trkpt>
      <trkpt lat="43.59657" lon="6.3817">
        <ele>593.6</ele>
        <time>2024-12-02T08:53:28Z</time>
      </trkpt>
      <trkpt lat="43.59665" lon="6.38162">
        <ele>593.3</ele>
        <time>2024-12-02T08:53:37Z</time>
      </trkpt>
      <trkpt lat="43.59673" lon="6.38154">
        <ele>593.2</ele>
        <time>2024-12-02T08:53:46Z</time>
      </trkpt>
      <trkpt lat="43.59679" lon="6.38144">
        <ele>592.9</ele>
        <time>2024-12-02T08:54:29Z</time>
      </trkpt>
      <trkpt lat="43.59686" lon="6.38135">
        <ele>592.7</ele>
        <time>2024-12-02T08:54:38Z</time>
      </trkpt>
      <trkpt lat="43.59693" lon="6.38126">
        <ele>592.9</ele>
        <time>2024-12-02T08:54:47Z</time>
      </trkpt>
      <trkpt lat="43.597" lon="6.38119">
        <ele>592.5</ele>
        <time>2024-12-02T08:54:56Z</time>
      </trkpt>
      <trkpt lat="43.59707" lon="6.3811">
        <ele>592.3</ele>
        <time>2024-12-02T08:55:06Z</time>
      </trkpt>
      <trkpt lat="43.59714" lon="6.381">
        <ele>591.8</ele>
        <time>2024-12-02T08:55:17Z</time>
      </trkpt>
      <trkpt lat="43.5972" lon="6.3809">
        <ele>591.7</ele>
        <time>2024-12-02T08:55:25Z</time>
      </trkpt>
      <trkpt lat="43.59727" lon="6.38081">
        <ele>591.5</ele>
        <time>2024-12-02T08:55:34Z</time>
      </trkpt>
      <trkpt lat="43.59733" lon="6.38072">
        <ele>591.1</ele>
        <time>2024-12-02T08:55:44Z</time>
      </trkpt>
      <trkpt lat="43.5974" lon="6.38062">
        <ele>590.8</ele>
        <time>2024-12-02T08:55:53Z</time>
      </trkpt>
      <trkpt lat="43.59744" lon="6.38051">
        <ele>590.8</ele>
        <time>2024-12-02T08:56:06Z</time>
      </trkpt>
      <trkpt lat="43.59746" lon="6.38038">
        <ele>590.8</ele>
        <time>2024-12-02T08:56:15Z</time>
      </trkpt>
      <trkpt lat="43.59749" lon="6.38026">
        <ele>590.8</ele>
        <time>2024-12-02T08:56:23Z</time>
      </trkpt>
      <trkpt lat="43.59749" lon="6.38013">
        <ele>590.8</ele>
        <time>2024-12-02T08:56:38Z</time>
      </trkpt>
      <trkpt lat="43.59755" lon="6.38004">
        <ele>591.4</ele>
        <time>2024-12-02T08:56:51Z</time>
      </trkpt>
      <trkpt lat="43.59762" lon="6.37994">
        <ele>591.9</ele>
        <time>2024-12-02T08:57:00Z</time>
      </trkpt>
      <trkpt lat="43.59768" lon="6.37986">
        <ele>593</ele>
        <time>2024-12-02T08:57:10Z</time>
      </trkpt>
      <trkpt lat="43.59774" lon="6.37975">
        <ele>594.2</ele>
        <time>2024-12-02T08:57:21Z</time>
      </trkpt>
      <trkpt lat="43.59779" lon="6.37964">
        <ele>595.5</ele>
        <time>2024-12-02T08:57:32Z</time>
      </trkpt>
      <trkpt lat="43.59784" lon="6.37953">
        <ele>597.1</ele>
        <time>2024-12-02T08:57:43Z</time>
      </trkpt>
      <trkpt lat="43.59786" lon="6.3794">
        <ele>600.1</ele>
        <time>2024-12-02T08:58:08Z</time>
      </trkpt>
      <trkpt lat="43.59791" lon="6.37929">
        <ele>601.7</ele>
        <time>2024-12-02T08:58:23Z</time>
      </trkpt>
      <trkpt lat="43.59798" lon="6.3792">
        <ele>603</ele>
        <time>2024-12-02T08:58:35Z</time>
      </trkpt>
      <trkpt lat="43.59803" lon="6.3791">
        <ele>604.3</ele>
        <time>2024-12-02T08:58:49Z</time>
      </trkpt>
      <trkpt lat="43.59808" lon="6.37899">
        <ele>605.9</ele>
        <time>2024-12-02T08:59:04Z</time>
      </trkpt>
      <trkpt lat="43.59813" lon="6.37887">
        <ele>607.8</ele>
        <time>2024-12-02T08:59:18Z</time>
      </trkpt>
      <trkpt lat="43.59819" lon="6.37877">
        <ele>609.8</ele>
        <time>2024-12-02T08:59:41Z</time>
      </trkpt>
      <trkpt lat="43.59825" lon="6.37869">
        <ele>611.2</ele>
        <time>2024-12-02T08:59:54Z</time>
      </trkpt>
      <trkpt lat="43.5983" lon="6.37857">
        <ele>612.7</ele>
        <time>2024-12-02T09:00:06Z</time>
      </trkpt>
      <trkpt lat="43.59826" lon="6.37846">
        <ele>616.7</ele>
        <time>2024-12-02T09:03:00Z</time>
      </trkpt>
      <trkpt lat="43.5982" lon="6.37836">
        <ele>618.6</ele>
        <time>2024-12-02T09:03:18Z</time>
      </trkpt>
      <trkpt lat="43.59821" lon="6.37823">
        <ele>620.8</ele>
        <time>2024-12-02T09:03:43Z</time>
      </trkpt>
      <trkpt lat="43.5982" lon="6.3781">
        <ele>623</ele>
        <time>2024-12-02T09:04:06Z</time>
      </trkpt>
      <trkpt lat="43.59816" lon="6.37799">
        <ele>624.5</ele>
        <time>2024-12-02T09:04:27Z</time>
      </trkpt>
      <trkpt lat="43.59812" lon="6.37787">
        <ele>625.9</ele>
        <time>2024-12-02T09:04:48Z</time>
      </trkpt>
      <trkpt lat="43.59806" lon="6.37777">
        <ele>627.8</ele>
        <time>2024-12-02T09:05:07Z</time>
      </trkpt>
      <trkpt lat="43.598" lon="6.37767">
        <ele>629.2</ele>
        <time>2024-12-02T09:05:29Z</time>
      </trkpt>
      <trkpt lat="43.59792" lon="6.37762">
        <ele>630.5</ele>
        <time>2024-12-02T09:05:50Z</time>
      </trkpt>
      <trkpt lat="43.59782" lon="6.37758">
        <ele>631.3</ele>
        <time>2024-12-02T09:06:07Z</time>
      </trkpt>
      <trkpt lat="43.59777" lon="6.37747">
        <ele>631.5</ele>
        <time>2024-12-02T09:06:38Z</time>
      </trkpt>
      <trkpt lat="43.59776" lon="6.37734">
        <ele>632.9</ele>
        <time>2024-12-02T09:06:54Z</time>
      </trkpt>
      <trkpt lat="43.59768" lon="6.37728">
        <ele>633.5</ele>
        <time>2024-12-02T09:07:06Z</time>
      </trkpt>
      <trkpt lat="43.59762" lon="6.37718">
        <ele>634.6</ele>
        <time>2024-12-02T09:07:18Z</time>
      </trkpt>
      <trkpt lat="43.59757" lon="6.37706">
        <ele>635.5</ele>
        <time>2024-12-02T09:07:27Z</time>
      </trkpt>
      <trkpt lat="43.59749" lon="6.37698">
        <ele>636.5</ele>
        <time>2024-12-02T09:07:37Z</time>
      </trkpt>
      <trkpt lat="43.59741" lon="6.37693">
        <ele>637.4</ele>
        <time>2024-12-02T09:07:49Z</time>
      </trkpt>
      <trkpt lat="43.59734" lon="6.37683">
        <ele>638.3</ele>
        <time>2024-12-02T09:08:00Z</time>
      </trkpt>
      <trkpt lat="43.59734" lon="6.37671">
        <ele>638.9</ele>
        <time>2024-12-02T09:08:09Z</time>
      </trkpt>
      <trkpt lat="43.59736" lon="6.37658">
        <ele>639.4</ele>
        <time>2024-12-02T09:08:58Z</time>
      </trkpt>
      <trkpt lat="43.59738" lon="6.37645">
        <ele>639.5</ele>
        <time>2024-12-02T09:09:13Z</time>
      </trkpt>
      <trkpt lat="43.59735" lon="6.37633">
        <ele>640.1</ele>
        <time>2024-12-02T09:11:11Z</time>
      </trkpt>
      <trkpt lat="43.59729" lon="6.37624">
        <ele>640.5</ele>
        <time>2024-12-02T09:11:22Z</time>
      </trkpt>
      <trkpt lat="43.5972" lon="6.37619">
        <ele>641.1</ele>
        <time>2024-12-02T09:11:38Z</time>
      </trkpt>
      <trkpt lat="43.59712" lon="6.37612">
        <ele>642.3</ele>
        <time>2024-12-02T09:11:50Z</time>
      </trkpt>
      <trkpt lat="43.59705" lon="6.37601">
        <ele>643.3</ele>
        <time>2024-12-02T09:12:02Z</time>
      </trkpt>
      <trkpt lat="43.59697" lon="6.37595">
        <ele>644.1</ele>
        <time>2024-12-02T09:12:13Z</time>
      </trkpt>
      <trkpt lat="43.59689" lon="6.3759">
        <ele>644.8</ele>
        <time>2024-12-02T09:12:24Z</time>
      </trkpt>
      <trkpt lat="43.59681" lon="6.37583">
        <ele>645.4</ele>
        <time>2024-12-02T09:12:36Z</time>
      </trkpt>
      <trkpt lat="43.59672" lon="6.37576">
        <ele>646</ele>
        <time>2024-12-02T09:12:47Z</time>
      </trkpt>
      <trkpt lat="43.59665" lon="6.37569">
        <ele>646.9</ele>
        <time>2024-12-02T09:12:58Z</time>
      </trkpt>
      <trkpt lat="43.59657" lon="6.37562">
        <ele>647.4</ele>
        <time>2024-12-02T09:13:10Z</time>
      </trkpt>
      <trkpt lat="43.59649" lon="6.37556">
        <ele>648</ele>
        <time>2024-12-02T09:13:23Z</time>
      </trkpt>
      <trkpt lat="43.59644" lon="6.37545">
        <ele>648.1</ele>
        <time>2024-12-02T09:13:33Z</time>
      </trkpt>
      <trkpt lat="43.59639" lon="6.37533">
        <ele>648.2</ele>
        <time>2024-12-02T09:13:45Z</time>
      </trkpt>
      <trkpt lat="43.5963" lon="6.3753">
        <ele>648.2</ele>
        <time>2024-12-02T09:14:07Z</time>
      </trkpt>
      <trkpt lat="43.59621" lon="6.3753">
        <ele>649</ele>
        <time>2024-12-02T09:15:03Z</time>
      </trkpt>
      <trkpt lat="43.59611" lon="6.37528">
        <ele>650</ele>
        <time>2024-12-02T09:15:15Z</time>
      </trkpt>
      <trkpt lat="43.59602" lon="6.37532">
        <ele>650.4</ele>
        <time>2024-12-02T09:15:24Z</time>
      </trkpt>
      <trkpt lat="43.59593" lon="6.37536">
        <ele>651.6</ele>
        <time>2024-12-02T09:15:38Z</time>
      </trkpt>
      <trkpt lat="43.59584" lon="6.37535">
        <ele>652.2</ele>
        <time>2024-12-02T09:15:50Z</time>
      </trkpt>
      <trkpt lat="43.59575" lon="6.37533">
        <ele>652.6</ele>
        <time>2024-12-02T09:15:59Z</time>
      </trkpt>
      <trkpt lat="43.59565" lon="6.3753">
        <ele>653.8</ele>
        <time>2024-12-02T09:16:10Z</time>
      </trkpt>
      <trkpt lat="43.59556" lon="6.37528">
        <ele>654.3</ele>
        <time>2024-12-02T09:16:20Z</time>
      </trkpt>
      <trkpt lat="43.59546" lon="6.37524">
        <ele>655.2</ele>
        <time>2024-12-02T09:16:31Z</time>
      </trkpt>
      <trkpt lat="43.59538" lon="6.37518">
        <ele>655.8</ele>
        <time>2024-12-02T09:16:43Z</time>
      </trkpt>
      <trkpt lat="43.59528" lon="6.37517">
        <ele>655.9</ele>
        <time>2024-12-02T09:16:54Z</time>
      </trkpt>
      <trkpt lat="43.59519" lon="6.37518">
        <ele>655.9</ele>
        <time>2024-12-02T09:17:05Z</time>
      </trkpt>
      <trkpt lat="43.59511" lon="6.37512">
        <ele>655.7</ele>
        <time>2024-12-02T09:17:15Z</time>
      </trkpt>
      <trkpt lat="43.59503" lon="6.37505">
        <ele>655.3</ele>
        <time>2024-12-02T09:17:24Z</time>
      </trkpt>
      <trkpt lat="43.59495" lon="6.37498">
        <ele>655.3</ele>
        <time>2024-12-02T09:17:38Z</time>
      </trkpt>
      <trkpt lat="43.59488" lon="6.3749">
        <ele>655.3</ele>
        <time>2024-12-02T09:17:50Z</time>
      </trkpt>
      <trkpt lat="43.59489" lon="6.37477">
        <ele>655.3</ele>
        <time>2024-12-02T09:18:02Z</time>
      </trkpt>
      <trkpt lat="43.59489" lon="6.37464">
        <ele>655.3</ele>
        <time>2024-12-02T09:18:22Z</time>
      </trkpt>
      <trkpt lat="43.59483" lon="6.37454">
        <ele>655.1</ele>
        <time>2024-12-02T09:18:31Z</time>
      </trkpt>
      <trkpt lat="43.59486" lon="6.37441">
        <ele>655.3</ele>
        <time>2024-12-02T09:18:40Z</time>
      </trkpt>
      <trkpt lat="43.59487" lon="6.37428">
        <ele>655.5</ele>
        <time>2024-12-02T09:18:50Z</time>
      </trkpt>
      <trkpt lat="43.59488" lon="6.37415">
        <ele>655.6</ele>
        <time>2024-12-02T09:19:03Z</time>
      </trkpt>
      <trkpt lat="43.59487" lon="6.37402">
        <ele>656</ele>
        <time>2024-12-02T09:19:16Z</time>
      </trkpt>
      <trkpt lat="43.59487" lon="6.37388">
        <ele>656</ele>
        <time>2024-12-02T09:19:27Z</time>
      </trkpt>
      <trkpt lat="43.59487" lon="6.37374">
        <ele>655.9</ele>
        <time>2024-12-02T09:19:37Z</time>
      </trkpt>
      <trkpt lat="43.5948" lon="6.37365">
        <ele>655.7</ele>
        <time>2024-12-02T09:19:46Z</time>
      </trkpt>
      <trkpt lat="43.59472" lon="6.37361">
        <ele>654.7</ele>
        <time>2024-12-02T09:19:55Z</time>
      </trkpt>
      <trkpt lat="43.59462" lon="6.37359">
        <ele>653.6</ele>
        <time>2024-12-02T09:20:13Z</time>
      </trkpt>
      <trkpt lat="43.59454" lon="6.37356">
        <ele>652.5</ele>
        <time>2024-12-02T09:20:28Z</time>
      </trkpt>
      <trkpt lat="43.59444" lon="6.37356">
        <ele>651.7</ele>
        <time>2024-12-02T09:20:53Z</time>
      </trkpt>
      <trkpt lat="43.59436" lon="6.3735">
        <ele>651.1</ele>
        <time>2024-12-02T09:21:11Z</time>
      </trkpt>
      <trkpt lat="43.59428" lon="6.37345">
        <ele>650.7</ele>
        <time>2024-12-02T09:21:22Z</time>
      </trkpt>
      <trkpt lat="43.59418" lon="6.37345">
        <ele>650.5</ele>
        <time>2024-12-02T09:21:34Z</time>
      </trkpt>
      <trkpt lat="43.59411" lon="6.37338">
        <ele>650.1</ele>
        <time>2024-12-02T09:21:45Z</time>
      </trkpt>
      <trkpt lat="43.59408" lon="6.37327">
        <ele>649.8</ele>
        <time>2024-12-02T09:21:58Z</time>
      </trkpt>
      <trkpt lat="43.59404" lon="6.37314">
        <ele>649.9</ele>
        <time>2024-12-02T09:22:10Z</time>
      </trkpt>
      <trkpt lat="43.594" lon="6.37302">
        <ele>650.1</ele>
        <time>2024-12-02T09:22:19Z</time>
      </trkpt>
      <trkpt lat="43.59396" lon="6.37291">
        <ele>650.2</ele>
        <time>2024-12-02T09:22:29Z</time>
      </trkpt>
      <trkpt lat="43.59389" lon="6.37283">
        <ele>650.4</ele>
        <time>2024-12-02T09:22:39Z</time>
      </trkpt>
      <trkpt lat="43.5938" lon="6.37279">
        <ele>650.4</ele>
        <time>2024-12-02T09:22:48Z</time>
      </trkpt>
      <trkpt lat="43.59371" lon="6.37275">
        <ele>650.3</ele>
        <time>2024-12-02T09:22:59Z</time>
      </trkpt>
      <trkpt lat="43.59362" lon="6.3727">
        <ele>649.7</ele>
        <time>2024-12-02T09:23:08Z</time>
      </trkpt>
      <trkpt lat="43.59355" lon="6.37261">
        <ele>649.5</ele>
        <time>2024-12-02T09:23:21Z</time>
      </trkpt>
      <trkpt lat="43.59347" lon="6.37254">
        <ele>649.9</ele>
        <time>2024-12-02T09:23:30Z</time>
      </trkpt>
      <trkpt lat="43.59338" lon="6.37248">
        <ele>650.1</ele>
        <time>2024-12-02T09:23:40Z</time>
      </trkpt>
      <trkpt lat="43.59329" lon="6.37243">
        <ele>650</ele>
        <time>2024-12-02T09:23:53Z</time>
      </trkpt>
      <trkpt lat="43.5932" lon="6.37244">
        <ele>648.9</ele>
        <time>2024-12-02T09:24:06Z</time>
      </trkpt>
      <trkpt lat="43.59311" lon="6.3725">
        <ele>648.2</ele>
        <time>2024-12-02T09:24:18Z</time>
      </trkpt>
      <trkpt lat="43.59301" lon="6.37253">
        <ele>647.8</ele>
        <time>2024-12-02T09:24:30Z</time>
      </trkpt>
      <trkpt lat="43.59295" lon="6.37262">
        <ele>646.4</ele>
        <time>2024-12-02T09:24:42Z</time>
      </trkpt>
      <trkpt lat="43.59287" lon="6.37268">
        <ele>646</ele>
        <time>2024-12-02T09:25:06Z</time>
      </trkpt>
      <trkpt lat="43.59281" lon="6.37279">
        <ele>645.4</ele>
        <time>2024-12-02T09:28:45Z</time>
      </trkpt>
      <trkpt lat="43.59274" lon="6.37287">
        <ele>644.7</ele>
        <time>2024-12-02T09:29:00Z</time>
      </trkpt>
      <trkpt lat="43.5927" lon="6.37298">
        <ele>643.9</ele>
        <time>2024-12-02T09:29:12Z</time>
      </trkpt>
      <trkpt lat="43.59262" lon="6.37304">
        <ele>643.2</ele>
        <time>2024-12-02T09:29:24Z</time>
      </trkpt>
      <trkpt lat="43.59254" lon="6.3731">
        <ele>643</ele>
        <time>2024-12-02T09:30:21Z</time>
      </trkpt>
      <trkpt lat="43.59245" lon="6.37314">
        <ele>643</ele>
        <time>2024-12-02T09:30:51Z</time>
      </trkpt>
      <trkpt lat="43.59237" lon="6.3732">
        <ele>644.7</ele>
        <time>2024-12-02T09:31:04Z</time>
      </trkpt>
      <trkpt lat="43.59229" lon="6.37327">
        <ele>647</ele>
        <time>2024-12-02T09:31:23Z</time>
      </trkpt>
      <trkpt lat="43.59221" lon="6.37335">
        <ele>648.1</ele>
        <time>2024-12-02T09:31:44Z</time>
      </trkpt>
      <trkpt lat="43.59217" lon="6.37347">
        <ele>648.4</ele>
        <time>2024-12-02T09:31:57Z</time>
      </trkpt>
      <trkpt lat="43.59213" lon="6.37359">
        <ele>648.2</ele>
        <time>2024-12-02T09:32:10Z</time>
      </trkpt>
      <trkpt lat="43.59207" lon="6.37369">
        <ele>647.9</ele>
        <time>2024-12-02T09:32:19Z</time>
      </trkpt>
      <trkpt lat="43.59202" lon="6.37379">
        <ele>647.7</ele>
        <time>2024-12-02T09:32:29Z</time>
      </trkpt>
      <trkpt lat="43.59196" lon="6.37389">
        <ele>646.7</ele>
        <time>2024-12-02T09:32:43Z</time>
      </trkpt>
      <trkpt lat="43.59191" lon="6.37401">
        <ele>645.1</ele>
        <time>2024-12-02T09:32:58Z</time>
      </trkpt>
      <trkpt lat="43.59189" lon="6.37413">
        <ele>643.7</ele>
        <time>2024-12-02T09:33:12Z</time>
      </trkpt>
      <trkpt lat="43.59188" lon="6.37427">
        <ele>642.2</ele>
        <time>2024-12-02T09:33:24Z</time>
      </trkpt>
      <trkpt lat="43.59186" lon="6.37439">
        <ele>640.8</ele>
        <time>2024-12-02T09:34:13Z</time>
      </trkpt>
      <trkpt lat="43.5918" lon="6.37449">
        <ele>640.2</ele>
        <time>2024-12-02T09:35:56Z</time>
      </trkpt>
      <trkpt lat="43.59182" lon="6.37462">
        <ele>640.5</ele>
        <time>2024-12-02T09:36:32Z</time>
      </trkpt>
      <trkpt lat="43.59186" lon="6.37473">
        <ele>637.5</ele>
        <time>2024-12-02T09:37:11Z</time>
      </trkpt>
      <trkpt lat="43.59181" lon="6.37484">
        <ele>635</ele>
        <time>2024-12-02T09:37:34Z</time>
      </trkpt>
      <trkpt lat="43.59178" lon="6.37496">
        <ele>633.7</ele>
        <time>2024-12-02T09:37:48Z</time>
      </trkpt>
      <trkpt lat="43.59174" lon="6.37508">
        <ele>632.8</ele>
        <time>2024-12-02T09:38:00Z</time>
      </trkpt>
      <trkpt lat="43.59169" lon="6.37519">
        <ele>631.8</ele>
        <time>2024-12-02T09:38:17Z</time>
      </trkpt>
      <trkpt lat="43.59168" lon="6.37533">
        <ele>630.4</ele>
        <time>2024-12-02T09:38:31Z</time>
      </trkpt>
      <trkpt lat="43.59165" lon="6.37545">
        <ele>628.6</ele>
        <time>2024-12-02T09:38:49Z</time>
      </trkpt>
      <trkpt lat="43.5916" lon="6.37556">
        <ele>627</ele>
        <time>2024-12-02T09:39:01Z</time>
      </trkpt>
      <trkpt lat="43.59166" lon="6.37567">
        <ele>625.2</ele>
        <time>2024-12-02T09:39:12Z</time>
      </trkpt>
      <trkpt lat="43.59171" lon="6.37577">
        <ele>623.6</ele>
        <time>2024-12-02T09:39:29Z</time>
      </trkpt>
      <trkpt lat="43.59176" lon="6.37588">
        <ele>621.7</ele>
        <time>2024-12-02T09:40:22Z</time>
      </trkpt>
      <trkpt lat="43.59178" lon="6.376">
        <ele>618.8</ele>
        <time>2024-12-02T09:40:46Z</time>
      </trkpt>
      <trkpt lat="43.5918" lon="6.37613">
        <ele>615.6</ele>
        <time>2024-12-02T09:41:17Z</time>
      </trkpt>
      <trkpt lat="43.59183" lon="6.37625">
        <ele>614.9</ele>
        <time>2024-12-02T09:41:31Z</time>
      </trkpt>
      <trkpt lat="43.59184" lon="6.37638">
        <ele>614.3</ele>
        <time>2024-12-02T09:41:46Z</time>
      </trkpt>
      <trkpt lat="43.59186" lon="6.37651">
        <ele>613.6</ele>
        <time>2024-12-02T09:41:59Z</time>
      </trkpt>
      <trkpt lat="43.59188" lon="6.37663">
        <ele>612.9</ele>
        <time>2024-12-02T09:42:16Z</time>
      </trkpt>
      <trkpt lat="43.59189" lon="6.37676">
        <ele>613.7</ele>
        <time>2024-12-02T09:42:32Z</time>
      </trkpt>
      <trkpt lat="43.59194" lon="6.37687">
        <ele>614.8</ele>
        <time>2024-12-02T09:42:45Z</time>
      </trkpt>
      <trkpt lat="43.59198" lon="6.37699">
        <ele>616.6</ele>
        <time>2024-12-02T09:43:01Z</time>
      </trkpt>
      <trkpt lat="43.59196" lon="6.37712">
        <ele>618.2</ele>
        <time>2024-12-02T09:43:20Z</time>
      </trkpt>
      <trkpt lat="43.59191" lon="6.37723">
        <ele>619.2</ele>
        <time>2024-12-02T09:43:35Z</time>
      </trkpt>
      <trkpt lat="43.5919" lon="6.37736">
        <ele>619.3</ele>
        <time>2024-12-02T09:44:31Z</time>
      </trkpt>
      <trkpt lat="43.59183" lon="6.37745">
        <ele>619.5</ele>
        <time>2024-12-02T09:44:49Z</time>
      </trkpt>
      <trkpt lat="43.59178" lon="6.37756">
        <ele>619.9</ele>
        <time>2024-12-02T09:45:07Z</time>
      </trkpt>
      <trkpt lat="43.59172" lon="6.37765">
        <ele>620.2</ele>
        <time>2024-12-02T09:45:20Z</time>
      </trkpt>
      <trkpt lat="43.59167" lon="6.37776">
        <ele>620.3</ele>
        <time>2024-12-02T09:45:33Z</time>
      </trkpt>
      <trkpt lat="43.59162" lon="6.37786">
        <ele>620.5</ele>
        <time>2024-12-02T09:45:45Z</time>
      </trkpt>
      <trkpt lat="43.59156" lon="6.37796">
        <ele>620.6</ele>
        <time>2024-12-02T09:45:58Z</time>
      </trkpt>
      <trkpt lat="43.5915" lon="6.37806">
        <ele>620.5</ele>
        <time>2024-12-02T09:46:15Z</time>
      </trkpt>
      <trkpt lat="43.59143" lon="6.37814">
        <ele>620.3</ele>
        <time>2024-12-02T09:46:27Z</time>
      </trkpt>
      <trkpt lat="43.59135" lon="6.3782">
        <ele>620.2</ele>
        <time>2024-12-02T09:46:41Z</time>
      </trkpt>
      <trkpt lat="43.59126" lon="6.37825">
        <ele>619.7</ele>
        <time>2024-12-02T09:46:52Z</time>
      </trkpt>
      <trkpt lat="43.59117" lon="6.37831">
        <ele>620.5</ele>
        <time>2024-12-02T09:47:05Z</time>
      </trkpt>
      <trkpt lat="43.59111" lon="6.37841">
        <ele>621.6</ele>
        <time>2024-12-02T09:47:20Z</time>
      </trkpt>
      <trkpt lat="43.59105" lon="6.37852">
        <ele>622.6</ele>
        <time>2024-12-02T09:47:33Z</time>
      </trkpt>
      <trkpt lat="43.59099" lon="6.37861">
        <ele>623.7</ele>
        <time>2024-12-02T09:47:47Z</time>
      </trkpt>
      <trkpt lat="43.59092" lon="6.3787">
        <ele>624.1</ele>
        <time>2024-12-02T09:47:58Z</time>
      </trkpt>
      <trkpt lat="43.59086" lon="6.3788">
        <ele>623.7</ele>
        <time>2024-12-02T09:48:11Z</time>
      </trkpt>
      <trkpt lat="43.59081" lon="6.37891">
        <ele>623.1</ele>
        <time>2024-12-02T09:48:23Z</time>
      </trkpt>
      <trkpt lat="43.59073" lon="6.37901">
        <ele>622.7</ele>
        <time>2024-12-02T09:48:34Z</time>
      </trkpt>
      <trkpt lat="43.59065" lon="6.37907">
        <ele>622.1</ele>
        <time>2024-12-02T09:48:44Z</time>
      </trkpt>
      <trkpt lat="43.59062" lon="6.37919">
        <ele>622.5</ele>
        <time>2024-12-02T09:48:55Z</time>
      </trkpt>
      <trkpt lat="43.59055" lon="6.37928">
        <ele>623</ele>
        <time>2024-12-02T09:49:05Z</time>
      </trkpt>
      <trkpt lat="43.5905" lon="6.37938">
        <ele>624.1</ele>
        <time>2024-12-02T09:49:15Z</time>
      </trkpt>
      <trkpt lat="43.59044" lon="6.37949">
        <ele>624.1</ele>
        <time>2024-12-02T09:49:26Z</time>
      </trkpt>
      <trkpt lat="43.59038" lon="6.37958">
        <ele>624</ele>
        <time>2024-12-02T09:49:39Z</time>
      </trkpt>
      <trkpt lat="43.59032" lon="6.37967">
        <ele>624.3</ele>
        <time>2024-12-02T09:49:50Z</time>
      </trkpt>
      <trkpt lat="43.59025" lon="6.37977">
        <ele>624.3</ele>
        <time>2024-12-02T09:50:03Z</time>
      </trkpt>
      <trkpt lat="43.59019" lon="6.37987">
        <ele>625.1</ele>
        <time>2024-12-02T09:50:15Z</time>
      </trkpt>
      <trkpt lat="43.59012" lon="6.37996">
        <ele>625.5</ele>
        <time>2024-12-02T09:50:25Z</time>
      </trkpt>
      <trkpt lat="43.59005" lon="6.38005">
        <ele>625.5</ele>
        <time>2024-12-02T09:50:38Z</time>
      </trkpt>
      <trkpt lat="43.58997" lon="6.38011">
        <ele>625.6</ele>
        <time>2024-12-02T09:50:54Z</time>
      </trkpt>
      <trkpt lat="43.58988" lon="6.38011">
        <ele>625.7</ele>
        <time>2024-12-02T09:51:09Z</time>
      </trkpt>
      <trkpt lat="43.58979" lon="6.38017">
        <ele>625.6</ele>
        <time>2024-12-02T09:51:22Z</time>
      </trkpt>
      <trkpt lat="43.5897" lon="6.38019">
        <ele>625.6</ele>
        <time>2024-12-02T09:51:35Z</time>
      </trkpt>
      <trkpt lat="43.58962" lon="6.38025">
        <ele>625.5</ele>
        <time>2024-12-02T09:51:47Z</time>
      </trkpt>
      <trkpt lat="43.58955" lon="6.38032">
        <ele>625</ele>
        <time>2024-12-02T09:51:58Z</time>
      </trkpt>
      <trkpt lat="43.58946" lon="6.38038">
        <ele>624.6</ele>
        <time>2024-12-02T09:52:10Z</time>
      </trkpt>
      <trkpt lat="43.58937" lon="6.38042">
        <ele>624.3</ele>
        <time>2024-12-02T09:52:23Z</time>
      </trkpt>
      <trkpt lat="43.58928" lon="6.38043">
        <ele>622.9</ele>
        <time>2024-12-02T09:52:36Z</time>
      </trkpt>
      <trkpt lat="43.5892" lon="6.38049">
        <ele>622.1</ele>
        <time>2024-12-02T09:52:50Z</time>
      </trkpt>
      <trkpt lat="43.58913" lon="6.38058">
        <ele>622</ele>
        <time>2024-12-02T09:53:00Z</time>
      </trkpt>
      <trkpt lat="43.58909" lon="6.38069">
        <ele>621.7</ele>
        <time>2024-12-02T09:53:12Z</time>
      </trkpt>
      <trkpt lat="43.58904" lon="6.3808">
        <ele>622.3</ele>
        <time>2024-12-02T09:53:22Z</time>
      </trkpt>
      <trkpt lat="43.58896" lon="6.38087">
        <ele>622.9</ele>
        <time>2024-12-02T09:53:33Z</time>
      </trkpt>
      <trkpt lat="43.58891" lon="6.38098">
        <ele>623</ele>
        <time>2024-12-02T09:53:43Z</time>
      </trkpt>
      <trkpt lat="43.58885" lon="6.38108">
        <ele>623.8</ele>
        <time>2024-12-02T09:53:56Z</time>
      </trkpt>
      <trkpt lat="43.58878" lon="6.38116">
        <ele>623.7</ele>
        <time>2024-12-02T09:54:08Z</time>
      </trkpt>
      <trkpt lat="43.58873" lon="6.38128">
        <ele>623.5</ele>
        <time>2024-12-02T09:54:20Z</time>
      </trkpt>
      <trkpt lat="43.58873" lon="6.3814">
        <ele>623.1</ele>
        <time>2024-12-02T09:54:31Z</time>
      </trkpt>
      <trkpt lat="43.58875" lon="6.38153">
        <ele>622.7</ele>
        <time>2024-12-02T09:54:45Z</time>
      </trkpt>
      <trkpt lat="43.58875" lon="6.38167">
        <ele>621.9</ele>
        <time>2024-12-02T09:54:59Z</time>
      </trkpt>
      <trkpt lat="43.58874" lon="6.38179">
        <ele>621.5</ele>
        <time>2024-12-02T09:55:10Z</time>
      </trkpt>
      <trkpt lat="43.58875" lon="6.38192">
        <ele>621.2</ele>
        <time>2024-12-02T09:55:21Z</time>
      </trkpt>
      <trkpt lat="43.58875" lon="6.38206">
        <ele>620.5</ele>
        <time>2024-12-02T09:55:34Z</time>
      </trkpt>
      <trkpt lat="43.58873" lon="6.38218">
        <ele>619.7</ele>
        <time>2024-12-02T09:55:44Z</time>
      </trkpt>
      <trkpt lat="43.5887" lon="6.38231">
        <ele>618.7</ele>
        <time>2024-12-02T09:55:54Z</time>
      </trkpt>
      <trkpt lat="43.58867" lon="6.38243">
        <ele>617.6</ele>
        <time>2024-12-02T09:56:06Z</time>
      </trkpt>
      <trkpt lat="43.58864" lon="6.38254">
        <ele>616.7</ele>
        <time>2024-12-02T09:56:19Z</time>
      </trkpt>
      <trkpt lat="43.58861" lon="6.38266">
        <ele>616.7</ele>
        <time>2024-12-02T09:56:29Z</time>
      </trkpt>
      <trkpt lat="43.58857" lon="6.38277">
        <ele>617.1</ele>
        <time>2024-12-02T09:56:39Z</time>
      </trkpt>
      <trkpt lat="43.58858" lon="6.3829">
        <ele>618.6</ele>
        <time>2024-12-02T09:56:50Z</time>
      </trkpt>
      <trkpt lat="43.58865" lon="6.38299">
        <ele>619.9</ele>
        <time>2024-12-02T09:57:03Z</time>
      </trkpt>
      <trkpt lat="43.58868" lon="6.38311">
        <ele>622</ele>
        <time>2024-12-02T09:57:58Z</time>
      </trkpt>
      <trkpt lat="43.58866" lon="6.38323">
        <ele>622.4</ele>
        <time>2024-12-02T09:59:06Z</time>
      </trkpt>
      <trkpt lat="43.58856" lon="6.38321">
        <ele>623.4</ele>
        <time>2024-12-02T09:59:40Z</time>
      </trkpt>
      <trkpt lat="43.5885" lon="6.3833">
        <ele>624.3</ele>
        <time>2024-12-02T09:59:59Z</time>
      </trkpt>
      <trkpt lat="43.58842" lon="6.38336">
        <ele>624.4</ele>
        <time>2024-12-02T10:00:11Z</time>
      </trkpt>
      <trkpt lat="43.58833" lon="6.38342">
        <ele>624.6</ele>
        <time>2024-12-02T10:00:18Z</time>
      </trkpt>
      <trkpt lat="43.58825" lon="6.38349">
        <ele>624.4</ele>
        <time>2024-12-02T10:00:26Z</time>
      </trkpt>
      <trkpt lat="43.58817" lon="6.38354">
        <ele>624.5</ele>
        <time>2024-12-02T10:00:37Z</time>
      </trkpt>
      <trkpt lat="43.58808" lon="6.38359">
        <ele>624.8</ele>
        <time>2024-12-02T10:00:47Z</time>
      </trkpt>
      <trkpt lat="43.58801" lon="6.38367">
        <ele>625.5</ele>
        <time>2024-12-02T10:00:57Z</time>
      </trkpt>
      <trkpt lat="43.58793" lon="6.38373">
        <ele>626.1</ele>
        <time>2024-12-02T10:01:04Z</time>
      </trkpt>
      <trkpt lat="43.58783" lon="6.38377">
        <ele>626.9</ele>
        <time>2024-12-02T10:01:14Z</time>
      </trkpt>
      <trkpt lat="43.58773" lon="6.38375">
        <ele>627.2</ele>
        <time>2024-12-02T10:01:31Z</time>
      </trkpt>
      <trkpt lat="43.58764" lon="6.38377">
        <ele>627.4</ele>
        <time>2024-12-02T10:01:41Z</time>
      </trkpt>
      <trkpt lat="43.58755" lon="6.38382">
        <ele>627.8</ele>
        <time>2024-12-02T10:02:27Z</time>
      </trkpt>
      <trkpt lat="43.58745" lon="6.38384">
        <ele>628.4</ele>
        <time>2024-12-02T10:02:37Z</time>
      </trkpt>
      <trkpt lat="43.58737" lon="6.38379">
        <ele>629.5</ele>
        <time>2024-12-02T10:02:57Z</time>
      </trkpt>
      <trkpt lat="43.58731" lon="6.38388">
        <ele>629.6</ele>
        <time>2024-12-02T10:03:09Z</time>
      </trkpt>
      <trkpt lat="43.58723" lon="6.38394">
        <ele>629.6</ele>
        <time>2024-12-02T10:03:17Z</time>
      </trkpt>
      <trkpt lat="43.58714" lon="6.384">
        <ele>629.6</ele>
        <time>2024-12-02T10:03:26Z</time>
      </trkpt>
      <trkpt lat="43.58706" lon="6.38407">
        <ele>629.7</ele>
        <time>2024-12-02T10:03:39Z</time>
      </trkpt>
      <trkpt lat="43.58697" lon="6.38413">
        <ele>629.8</ele>
        <time>2024-12-02T10:03:49Z</time>
      </trkpt>
      <trkpt lat="43.58688" lon="6.38418">
        <ele>629.8</ele>
        <time>2024-12-02T10:03:59Z</time>
      </trkpt>
      <trkpt lat="43.58679" lon="6.38423">
        <ele>629.9</ele>
        <time>2024-12-02T10:04:09Z</time>
      </trkpt>
      <trkpt lat="43.58671" lon="6.38428">
        <ele>630.1</ele>
        <time>2024-12-02T10:04:19Z</time>
      </trkpt>
      <trkpt lat="43.58662" lon="6.38433">
        <ele>630.2</ele>
        <time>2024-12-02T10:04:29Z</time>
      </trkpt>
      <trkpt lat="43.58653" lon="6.38439">
        <ele>630.4</ele>
        <time>2024-12-02T10:04:38Z</time>
      </trkpt>
      <trkpt lat="43.58644" lon="6.38446">
        <ele>630.8</ele>
        <time>2024-12-02T10:04:47Z</time>
      </trkpt>
      <trkpt lat="43.58636" lon="6.38451">
        <ele>630.8</ele>
        <time>2024-12-02T10:04:57Z</time>
      </trkpt>
      <trkpt lat="43.58627" lon="6.38457">
        <ele>631</ele>
        <time>2024-12-02T10:05:06Z</time>
      </trkpt>
      <trkpt lat="43.58619" lon="6.38465">
        <ele>631.2</ele>
        <time>2024-12-02T10:05:17Z</time>
      </trkpt>
      <trkpt lat="43.58611" lon="6.38473">
        <ele>631.6</ele>
        <time>2024-12-02T10:05:26Z</time>
      </trkpt>
      <trkpt lat="43.58617" lon="6.38483">
        <ele>632.5</ele>
        <time>2024-12-02T10:05:47Z</time>
      </trkpt>
      <trkpt lat="43.58626" lon="6.38487">
        <ele>634.7</ele>
        <time>2024-12-02T10:06:06Z</time>
      </trkpt>
      <trkpt lat="43.58635" lon="6.38489">
        <ele>638.6</ele>
        <time>2024-12-02T10:06:25Z</time>
      </trkpt>
      <trkpt lat="43.58643" lon="6.38497">
        <ele>640.1</ele>
        <time>2024-12-02T10:06:56Z</time>
      </trkpt>
      <trkpt lat="43.58635" lon="6.38493">
        <ele>640</ele>
        <time>2024-12-02T10:12:03Z</time>
      </trkpt>
      <trkpt lat="43.58626" lon="6.38487">
        <ele>637.5</ele>
        <time>2024-12-02T10:12:21Z</time>
      </trkpt>
      <trkpt lat="43.58618" lon="6.38483">
        <ele>634.6</ele>
        <time>2024-12-02T10:12:39Z</time>
      </trkpt>
      <trkpt lat="43.58611" lon="6.38475">
        <ele>633.2</ele>
        <time>2024-12-02T10:12:55Z</time>
      </trkpt>
      <trkpt lat="43.58605" lon="6.38485">
        <ele>632.7</ele>
        <time>2024-12-02T10:13:48Z</time>
      </trkpt>
      <trkpt lat="43.5861" lon="6.38496">
        <ele>632.5</ele>
        <time>2024-12-02T10:15:19Z</time>
      </trkpt>
      <trkpt lat="43.58611" lon="6.38508">
        <ele>632.6</ele>
        <time>2024-12-02T10:15:28Z</time>
      </trkpt>
      <trkpt lat="43.58614" lon="6.38521">
        <ele>632.6</ele>
        <time>2024-12-02T10:15:37Z</time>
      </trkpt>
      <trkpt lat="43.58615" lon="6.38534">
        <ele>632.5</ele>
        <time>2024-12-02T10:15:48Z</time>
      </trkpt>
      <trkpt lat="43.58616" lon="6.38547">
        <ele>632.7</ele>
        <time>2024-12-02T10:15:57Z</time>
      </trkpt>
      <trkpt lat="43.58615" lon="6.3856">
        <ele>632.1</ele>
        <time>2024-12-02T10:16:13Z</time>
      </trkpt>
      <trkpt lat="43.58615" lon="6.38573">
        <ele>631.6</ele>
        <time>2024-12-02T10:16:24Z</time>
      </trkpt>
      <trkpt lat="43.58615" lon="6.38586">
        <ele>630.8</ele>
        <time>2024-12-02T10:16:33Z</time>
      </trkpt>
      <trkpt lat="43.58614" lon="6.38598">
        <ele>630</ele>
        <time>2024-12-02T10:16:44Z</time>
      </trkpt>
      <trkpt lat="43.58613" lon="6.38612">
        <ele>629.1</ele>
        <time>2024-12-02T10:16:55Z</time>
      </trkpt>
      <trkpt lat="43.58611" lon="6.38624">
        <ele>628.4</ele>
        <time>2024-12-02T10:17:07Z</time>
      </trkpt>
      <trkpt lat="43.5861" lon="6.38637">
        <ele>627.8</ele>
        <time>2024-12-02T10:17:16Z</time>
      </trkpt>
      <trkpt lat="43.5861" lon="6.3865">
        <ele>627.2</ele>
        <time>2024-12-02T10:17:24Z</time>
      </trkpt>
      <trkpt lat="43.58613" lon="6.38663">
        <ele>626.7</ele>
        <time>2024-12-02T10:17:35Z</time>
      </trkpt>
      <trkpt lat="43.58615" lon="6.38676">
        <ele>627.1</ele>
        <time>2024-12-02T10:17:46Z</time>
      </trkpt>
      <trkpt lat="43.58616" lon="6.38689">
        <ele>626.8</ele>
        <time>2024-12-02T10:17:57Z</time>
      </trkpt>
      <trkpt lat="43.58618" lon="6.38702">
        <ele>627.4</ele>
        <time>2024-12-02T10:18:08Z</time>
      </trkpt>
      <trkpt lat="43.58616" lon="6.38715">
        <ele>627.4</ele>
        <time>2024-12-02T10:18:18Z</time>
      </trkpt>
      <trkpt lat="43.58615" lon="6.38728">
        <ele>627.5</ele>
        <time>2024-12-02T10:18:28Z</time>
      </trkpt>
      <trkpt lat="43.58613" lon="6.38741">
        <ele>628</ele>
        <time>2024-12-02T10:18:40Z</time>
      </trkpt>
      <trkpt lat="43.58612" lon="6.38753">
        <ele>628.5</ele>
        <time>2024-12-02T10:18:51Z</time>
      </trkpt>
      <trkpt lat="43.58612" lon="6.38766">
        <ele>628.5</ele>
        <time>2024-12-02T10:19:03Z</time>
      </trkpt>
      <trkpt lat="43.58611" lon="6.38779">
        <ele>627.6</ele>
        <time>2024-12-02T10:19:14Z</time>
      </trkpt>
      <trkpt lat="43.5861" lon="6.38793">
        <ele>626.1</ele>
        <time>2024-12-02T10:19:28Z</time>
      </trkpt>
      <trkpt lat="43.58613" lon="6.38805">
        <ele>625.1</ele>
        <time>2024-12-02T10:19:41Z</time>
      </trkpt>
      <trkpt lat="43.58615" lon="6.38817">
        <ele>623.6</ele>
        <time>2024-12-02T10:19:55Z</time>
      </trkpt>
      <trkpt lat="43.58624" lon="6.38823">
        <ele>621</ele>
        <time>2024-12-02T10:20:15Z</time>
      </trkpt>
      <trkpt lat="43.58627" lon="6.38835">
        <ele>619.7</ele>
        <time>2024-12-02T10:20:30Z</time>
      </trkpt>
      <trkpt lat="43.58621" lon="6.38844">
        <ele>617.3</ele>
        <time>2024-12-02T10:20:44Z</time>
      </trkpt>
      <trkpt lat="43.58619" lon="6.38859">
        <ele>615.7</ele>
        <time>2024-12-02T10:21:03Z</time>
      </trkpt>
      <trkpt lat="43.58612" lon="6.38867">
        <ele>615.7</ele>
        <time>2024-12-02T10:21:12Z</time>
      </trkpt>
      <trkpt lat="43.58603" lon="6.38871">
        <ele>615.8</ele>
        <time>2024-12-02T10:21:21Z</time>
      </trkpt>
      <trkpt lat="43.58598" lon="6.38882">
        <ele>615.5</ele>
        <time>2024-12-02T10:22:47Z</time>
      </trkpt>
      <trkpt lat="43.58597" lon="6.38896">
        <ele>615.5</ele>
        <time>2024-12-02T10:22:56Z</time>
      </trkpt>
      <trkpt lat="43.58596" lon="6.38909">
        <ele>614.7</ele>
        <time>2024-12-02T10:23:06Z</time>
      </trkpt>
      <trkpt lat="43.58594" lon="6.38921">
        <ele>614.5</ele>
        <time>2024-12-02T10:23:18Z</time>
      </trkpt>
      <trkpt lat="43.58591" lon="6.38932">
        <ele>614.4</ele>
        <time>2024-12-02T10:23:33Z</time>
      </trkpt>
      <trkpt lat="43.58588" lon="6.38944">
        <ele>614.4</ele>
        <time>2024-12-02T10:23:42Z</time>
      </trkpt>
      <trkpt lat="43.58584" lon="6.38957">
        <ele>614.4</ele>
        <time>2024-12-02T10:23:51Z</time>
      </trkpt>
      <trkpt lat="43.5858" lon="6.3897">
        <ele>614.3</ele>
        <time>2024-12-02T10:24:00Z</time>
      </trkpt>
      <trkpt lat="43.58576" lon="6.38982">
        <ele>614.4</ele>
        <time>2024-12-02T10:24:08Z</time>
      </trkpt>
      <trkpt lat="43.58572" lon="6.38993">
        <ele>614.4</ele>
        <time>2024-12-02T10:24:17Z</time>
      </trkpt>
      <trkpt lat="43.58565" lon="6.39003">
        <ele>614.3</ele>
        <time>2024-12-02T10:24:26Z</time>
      </trkpt>
      <trkpt lat="43.58561" lon="6.39014">
        <ele>614.1</ele>
        <time>2024-12-02T10:24:37Z</time>
      </trkpt>
      <trkpt lat="43.58562" lon="6.39027">
        <ele>615.2</ele>
        <time>2024-12-02T10:25:04Z</time>
      </trkpt>
      <trkpt lat="43.58567" lon="6.39037">
        <ele>616.7</ele>
        <time>2024-12-02T10:27:14Z</time>
      </trkpt>
      <trkpt lat="43.58568" lon="6.3905">
        <ele>618.3</ele>
        <time>2024-12-02T10:27:35Z</time>
      </trkpt>
      <trkpt lat="43.58568" lon="6.39064">
        <ele>619.3</ele>
        <time>2024-12-02T10:27:47Z</time>
      </trkpt>
      <trkpt lat="43.5857" lon="6.39076">
        <ele>620.7</ele>
        <time>2024-12-02T10:28:10Z</time>
      </trkpt>
      <trkpt lat="43.58572" lon="6.39089">
        <ele>622.9</ele>
        <time>2024-12-02T10:28:46Z</time>
      </trkpt>
      <trkpt lat="43.58568" lon="6.391">
        <ele>625.3</ele>
        <time>2024-12-02T10:29:13Z</time>
      </trkpt>
      <trkpt lat="43.58571" lon="6.39112">
        <ele>627.9</ele>
        <time>2024-12-02T10:29:39Z</time>
      </trkpt>
      <trkpt lat="43.58576" lon="6.39123">
        <ele>628.7</ele>
        <time>2024-12-02T10:30:29Z</time>
      </trkpt>
      <trkpt lat="43.58576" lon="6.3911">
        <ele>628.6</ele>
        <time>2024-12-02T10:31:30Z</time>
      </trkpt>
      <trkpt lat="43.58578" lon="6.39123">
        <ele>628.7</ele>
        <time>2024-12-02T10:31:59Z</time>
      </trkpt>
      <trkpt lat="43.58583" lon="6.39134">
        <ele>627.3</ele>
        <time>2024-12-02T10:32:19Z</time>
      </trkpt>
      <trkpt lat="43.58588" lon="6.39145">
        <ele>626.7</ele>
        <time>2024-12-02T10:32:32Z</time>
      </trkpt>
      <trkpt lat="43.58592" lon="6.39156">
        <ele>626.7</ele>
        <time>2024-12-02T10:32:46Z</time>
      </trkpt>
      <trkpt lat="43.58597" lon="6.39166">
        <ele>626.6</ele>
        <time>2024-12-02T10:33:11Z</time>
      </trkpt>
      <trkpt lat="43.58599" lon="6.39179">
        <ele>627.2</ele>
        <time>2024-12-02T10:33:28Z</time>
      </trkpt>
      <trkpt lat="43.58601" lon="6.39192">
        <ele>626.9</ele>
        <time>2024-12-02T10:33:42Z</time>
      </trkpt>
      <trkpt lat="43.58607" lon="6.39201">
        <ele>626.6</ele>
        <time>2024-12-02T10:33:55Z</time>
      </trkpt>
      <trkpt lat="43.58611" lon="6.39213">
        <ele>626.4</ele>
        <time>2024-12-02T10:34:15Z</time>
      </trkpt>
      <trkpt lat="43.58609" lon="6.39226">
        <ele>626.8</ele>
        <time>2024-12-02T10:34:26Z</time>
      </trkpt>
      <trkpt lat="43.58608" lon="6.39239">
        <ele>627</ele>
        <time>2024-12-02T10:34:45Z</time>
      </trkpt>
      <trkpt lat="43.58608" lon="6.39252">
        <ele>627</ele>
        <time>2024-12-02T10:34:56Z</time>
      </trkpt>
      <trkpt lat="43.5861" lon="6.39264">
        <ele>626.8</ele>
        <time>2024-12-02T10:35:07Z</time>
      </trkpt>
      <trkpt lat="43.5861" lon="6.39278">
        <ele>627.2</ele>
        <time>2024-12-02T10:35:19Z</time>
      </trkpt>
      <trkpt lat="43.58612" lon="6.39291">
        <ele>627.6</ele>
        <time>2024-12-02T10:35:29Z</time>
      </trkpt>
      <trkpt lat="43.58612" lon="6.39304">
        <ele>627.6</ele>
        <time>2024-12-02T10:35:40Z</time>
      </trkpt>
      <trkpt lat="43.58613" lon="6.39317">
        <ele>627.9</ele>
        <time>2024-12-02T10:35:51Z</time>
      </trkpt>
      <trkpt lat="43.58612" lon="6.3933">
        <ele>628.2</ele>
        <time>2024-12-02T10:36:04Z</time>
      </trkpt>
      <trkpt lat="43.5861" lon="6.39343">
        <ele>628.6</ele>
        <time>2024-12-02T10:36:16Z</time>
      </trkpt>
      <trkpt lat="43.58611" lon="6.39357">
        <ele>628.6</ele>
        <time>2024-12-02T10:36:26Z</time>
      </trkpt>
      <trkpt lat="43.58612" lon="6.39369">
        <ele>628.8</ele>
        <time>2024-12-02T10:36:35Z</time>
      </trkpt>
      <trkpt lat="43.58613" lon="6.39382">
        <ele>629</ele>
        <time>2024-12-02T10:36:43Z</time>
      </trkpt>
      <trkpt lat="43.58616" lon="6.39395">
        <ele>629</ele>
        <time>2024-12-02T10:36:52Z</time>
      </trkpt>
      <trkpt lat="43.58617" lon="6.39408">
        <ele>628.9</ele>
        <time>2024-12-02T10:37:02Z</time>
      </trkpt>
      <trkpt lat="43.58616" lon="6.39422">
        <ele>629</ele>
        <time>2024-12-02T10:37:13Z</time>
      </trkpt>
      <trkpt lat="43.58619" lon="6.39433">
        <ele>629.2</ele>
        <time>2024-12-02T10:37:22Z</time>
      </trkpt>
      <trkpt lat="43.58622" lon="6.39446">
        <ele>629.6</ele>
        <time>2024-12-02T10:37:32Z</time>
      </trkpt>
      <trkpt lat="43.58624" lon="6.39458">
        <ele>630.1</ele>
        <time>2024-12-02T10:37:41Z</time>
      </trkpt>
      <trkpt lat="43.58626" lon="6.39471">
        <ele>630.6</ele>
        <time>2024-12-02T10:37:52Z</time>
      </trkpt>
      <trkpt lat="43.58629" lon="6.39483">
        <ele>630.8</ele>
        <time>2024-12-02T10:38:03Z</time>
      </trkpt>
      <trkpt lat="43.58626" lon="6.39494">
        <ele>631</ele>
        <time>2024-12-02T10:38:59Z</time>
      </trkpt>
      <trkpt lat="43.58623" lon="6.39482">
        <ele>631.1</ele>
        <time>2024-12-02T10:41:10Z</time>
      </trkpt>
      <trkpt lat="43.58628" lon="6.39493">
        <ele>631.3</ele>
        <time>2024-12-02T10:42:22Z</time>
      </trkpt>
      <trkpt lat="43.5863" lon="6.39505">
        <ele>631.5</ele>
        <time>2024-12-02T10:42:50Z</time>
      </trkpt>
      <trkpt lat="43.58633" lon="6.39518">
        <ele>632</ele>
        <time>2024-12-02T10:43:00Z</time>
      </trkpt>
      <trkpt lat="43.58636" lon="6.3953">
        <ele>632.4</ele>
        <time>2024-12-02T10:43:11Z</time>
      </trkpt>
      <trkpt lat="43.58639" lon="6.39542">
        <ele>632.1</ele>
        <time>2024-12-02T10:43:20Z</time>
      </trkpt>
      <trkpt lat="43.58642" lon="6.39555">
        <ele>631.6</ele>
        <time>2024-12-02T10:43:30Z</time>
      </trkpt>
      <trkpt lat="43.58642" lon="6.39567">
        <ele>632.1</ele>
        <time>2024-12-02T10:43:39Z</time>
      </trkpt>
      <trkpt lat="43.58644" lon="6.39581">
        <ele>631.9</ele>
        <time>2024-12-02T10:43:49Z</time>
      </trkpt>
      <trkpt lat="43.58647" lon="6.39593">
        <ele>631</ele>
        <time>2024-12-02T10:43:59Z</time>
      </trkpt>
      <trkpt lat="43.58649" lon="6.39606">
        <ele>630.6</ele>
        <time>2024-12-02T10:44:09Z</time>
      </trkpt>
      <trkpt lat="43.58651" lon="6.39619">
        <ele>629.8</ele>
        <time>2024-12-02T10:44:19Z</time>
      </trkpt>
      <trkpt lat="43.58655" lon="6.39631">
        <ele>629.3</ele>
        <time>2024-12-02T10:44:29Z</time>
      </trkpt>
      <trkpt lat="43.5866" lon="6.39642">
        <ele>629.2</ele>
        <time>2024-12-02T10:44:39Z</time>
      </trkpt>
      <trkpt lat="43.58664" lon="6.39654">
        <ele>629.1</ele>
        <time>2024-12-02T10:44:49Z</time>
      </trkpt>
      <trkpt lat="43.58668" lon="6.39666">
        <ele>629.5</ele>
        <time>2024-12-02T10:44:58Z</time>
      </trkpt>
      <trkpt lat="43.5867" lon="6.39679">
        <ele>629.5</ele>
        <time>2024-12-02T10:45:07Z</time>
      </trkpt>
      <trkpt lat="43.58673" lon="6.39691">
        <ele>629.6</ele>
        <time>2024-12-02T10:45:16Z</time>
      </trkpt>
      <trkpt lat="43.58673" lon="6.39704">
        <ele>629.6</ele>
        <time>2024-12-02T10:45:26Z</time>
      </trkpt>
      <trkpt lat="43.5867" lon="6.39717">
        <ele>629.9</ele>
        <time>2024-12-02T10:45:35Z</time>
      </trkpt>
      <trkpt lat="43.58669" lon="6.3973">
        <ele>630.7</ele>
        <time>2024-12-02T10:45:44Z</time>
      </trkpt>
      <trkpt lat="43.5867" lon="6.39743">
        <ele>630.9</ele>
        <time>2024-12-02T10:45:54Z</time>
      </trkpt>
      <trkpt lat="43.58671" lon="6.39756">
        <ele>630.4</ele>
        <time>2024-12-02T10:46:03Z</time>
      </trkpt>
      <trkpt lat="43.58669" lon="6.39769">
        <ele>630.1</ele>
        <time>2024-12-02T10:46:12Z</time>
      </trkpt>
      <trkpt lat="43.58666" lon="6.39782">
        <ele>630.1</ele>
        <time>2024-12-02T10:46:22Z</time>
      </trkpt>
      <trkpt lat="43.58667" lon="6.39795">
        <ele>631.3</ele>
        <time>2024-12-02T10:46:32Z</time>
      </trkpt>
      <trkpt lat="43.58666" lon="6.39808">
        <ele>632.5</ele>
        <time>2024-12-02T10:46:43Z</time>
      </trkpt>
      <trkpt lat="43.58666" lon="6.39821">
        <ele>633.2</ele>
        <time>2024-12-02T10:46:54Z</time>
      </trkpt>
      <trkpt lat="43.58663" lon="6.39833">
        <ele>633.3</ele>
        <time>2024-12-02T10:47:04Z</time>
      </trkpt>
      <trkpt lat="43.58657" lon="6.39843">
        <ele>633.7</ele>
        <time>2024-12-02T10:47:49Z</time>
      </trkpt>
      <trkpt lat="43.58653" lon="6.39855">
        <ele>633.8</ele>
        <time>2024-12-02T10:47:59Z</time>
      </trkpt>
      <trkpt lat="43.58651" lon="6.39867">
        <ele>634.3</ele>
        <time>2024-12-02T10:48:11Z</time>
      </trkpt>
      <trkpt lat="43.58647" lon="6.3988">
        <ele>634.8</ele>
        <time>2024-12-02T10:48:26Z</time>
      </trkpt>
      <trkpt lat="43.58643" lon="6.39891">
        <ele>635.6</ele>
        <time>2024-12-02T10:48:38Z</time>
      </trkpt>
      <trkpt lat="43.58637" lon="6.39902">
        <ele>636.6</ele>
        <time>2024-12-02T10:48:49Z</time>
      </trkpt>
      <trkpt lat="43.58632" lon="6.39914">
        <ele>637</ele>
        <time>2024-12-02T10:49:02Z</time>
      </trkpt>
      <trkpt lat="43.58628" lon="6.39925">
        <ele>637.6</ele>
        <time>2024-12-02T10:49:13Z</time>
      </trkpt>
      <trkpt lat="43.58624" lon="6.39937">
        <ele>638</ele>
        <time>2024-12-02T10:49:24Z</time>
      </trkpt>
      <trkpt lat="43.58621" lon="6.3995">
        <ele>637.3</ele>
        <time>2024-12-02T10:51:32Z</time>
      </trkpt>
      <trkpt lat="43.5862" lon="6.39963">
        <ele>637.1</ele>
        <time>2024-12-02T10:51:41Z</time>
      </trkpt>
      <trkpt lat="43.58617" lon="6.39976">
        <ele>637.7</ele>
        <time>2024-12-02T10:51:49Z</time>
      </trkpt>
      <trkpt lat="43.58614" lon="6.39988">
        <ele>638.1</ele>
        <time>2024-12-02T10:51:58Z</time>
      </trkpt>
      <trkpt lat="43.5861" lon="6.40001">
        <ele>638.6</ele>
        <time>2024-12-02T10:52:07Z</time>
      </trkpt>
      <trkpt lat="43.58606" lon="6.40013">
        <ele>639</ele>
        <time>2024-12-02T10:52:17Z</time>
      </trkpt>
      <trkpt lat="43.58603" lon="6.40024">
        <ele>640</ele>
        <time>2024-12-02T10:52:27Z</time>
      </trkpt>
      <trkpt lat="43.58598" lon="6.40036">
        <ele>640.2</ele>
        <time>2024-12-02T10:52:36Z</time>
      </trkpt>
      <trkpt lat="43.58594" lon="6.40048">
        <ele>640.5</ele>
        <time>2024-12-02T10:52:52Z</time>
      </trkpt>
      <trkpt lat="43.58589" lon="6.40059">
        <ele>640</ele>
        <time>2024-12-02T10:53:12Z</time>
      </trkpt>
      <trkpt lat="43.58583" lon="6.40069">
        <ele>639.7</ele>
        <time>2024-12-02T10:53:24Z</time>
      </trkpt>
      <trkpt lat="43.58577" lon="6.40079">
        <ele>639.4</ele>
        <time>2024-12-02T10:53:34Z</time>
      </trkpt>
      <trkpt lat="43.58569" lon="6.40086">
        <ele>638.9</ele>
        <time>2024-12-02T10:53:46Z</time>
      </trkpt>
      <trkpt lat="43.58561" lon="6.40094">
        <ele>638.6</ele>
        <time>2024-12-02T10:53:56Z</time>
      </trkpt>
      <trkpt lat="43.58556" lon="6.40106">
        <ele>638.4</ele>
        <time>2024-12-02T10:54:06Z</time>
      </trkpt>
      <trkpt lat="43.58552" lon="6.40117">
        <ele>638.3</ele>
        <time>2024-12-02T10:54:15Z</time>
      </trkpt>
      <trkpt lat="43.58547" lon="6.40128">
        <ele>638.2</ele>
        <time>2024-12-02T10:54:25Z</time>
      </trkpt>
      <trkpt lat="43.58545" lon="6.4014">
        <ele>638.2</ele>
        <time>2024-12-02T10:54:35Z</time>
      </trkpt>
      <trkpt lat="43.58542" lon="6.40152">
        <ele>638.2</ele>
        <time>2024-12-02T10:54:45Z</time>
      </trkpt>
      <trkpt lat="43.58541" lon="6.40165">
        <ele>638</ele>
        <time>2024-12-02T10:54:56Z</time>
      </trkpt>
      <trkpt lat="43.58539" lon="6.40178">
        <ele>637.9</ele>
        <time>2024-12-02T10:55:07Z</time>
      </trkpt>
      <trkpt lat="43.58535" lon="6.40189">
        <ele>638.2</ele>
        <time>2024-12-02T10:55:17Z</time>
      </trkpt>
      <trkpt lat="43.58534" lon="6.40202">
        <ele>638.1</ele>
        <time>2024-12-02T10:55:27Z</time>
      </trkpt>
      <trkpt lat="43.58534" lon="6.40216">
        <ele>637.9</ele>
        <time>2024-12-02T10:55:37Z</time>
      </trkpt>
      <trkpt lat="43.58534" lon="6.40228">
        <ele>637.6</ele>
        <time>2024-12-02T10:55:46Z</time>
      </trkpt>
      <trkpt lat="43.58533" lon="6.40242">
        <ele>636.8</ele>
        <time>2024-12-02T10:55:56Z</time>
      </trkpt>
      <trkpt lat="43.58532" lon="6.40254">
        <ele>636.9</ele>
        <time>2024-12-02T10:56:04Z</time>
      </trkpt>
      <trkpt lat="43.58529" lon="6.40267">
        <ele>636.9</ele>
        <time>2024-12-02T10:56:13Z</time>
      </trkpt>
      <trkpt lat="43.58524" lon="6.40278">
        <ele>636.8</ele>
        <time>2024-12-02T10:56:22Z</time>
      </trkpt>
      <trkpt lat="43.58521" lon="6.4029">
        <ele>636.5</ele>
        <time>2024-12-02T10:56:31Z</time>
      </trkpt>
      <trkpt lat="43.58516" lon="6.40302">
        <ele>635.9</ele>
        <time>2024-12-02T10:56:41Z</time>
      </trkpt>
      <trkpt lat="43.58511" lon="6.40313">
        <ele>635.4</ele>
        <time>2024-12-02T10:56:50Z</time>
      </trkpt>
      <trkpt lat="43.58506" lon="6.40323">
        <ele>635</ele>
        <time>2024-12-02T10:56:59Z</time>
      </trkpt>
      <trkpt lat="43.585" lon="6.40334">
        <ele>634.8</ele>
        <time>2024-12-02T10:57:09Z</time>
      </trkpt>
      <trkpt lat="43.58493" lon="6.40343">
        <ele>635.5</ele>
        <time>2024-12-02T10:57:19Z</time>
      </trkpt>
      <trkpt lat="43.58486" lon="6.40352">
        <ele>636.4</ele>
        <time>2024-12-02T10:57:31Z</time>
      </trkpt>
      <trkpt lat="43.58478" lon="6.40359">
        <ele>636.1</ele>
        <time>2024-12-02T10:57:41Z</time>
      </trkpt>
      <trkpt lat="43.58473" lon="6.40369">
        <ele>636.5</ele>
        <time>2024-12-02T10:57:49Z</time>
      </trkpt>
      <trkpt lat="43.58466" lon="6.40378">
        <ele>635.9</ele>
        <time>2024-12-02T10:57:59Z</time>
      </trkpt>
      <trkpt lat="43.5846" lon="6.40389">
        <ele>634.8</ele>
        <time>2024-12-02T10:58:11Z</time>
      </trkpt>
      <trkpt lat="43.58454" lon="6.40399">
        <ele>633.6</ele>
        <time>2024-12-02T10:58:21Z</time>
      </trkpt>
      <trkpt lat="43.58448" lon="6.40409">
        <ele>632.5</ele>
        <time>2024-12-02T10:58:31Z</time>
      </trkpt>
      <trkpt lat="43.58446" lon="6.40421">
        <ele>631.6</ele>
        <time>2024-12-02T10:58:48Z</time>
      </trkpt>
      <trkpt lat="43.58444" lon="6.40434">
        <ele>631.1</ele>
        <time>2024-12-02T10:58:57Z</time>
      </trkpt>
      <trkpt lat="43.58442" lon="6.40447">
        <ele>630.1</ele>
        <time>2024-12-02T10:59:06Z</time>
      </trkpt>
      <trkpt lat="43.58439" lon="6.40458">
        <ele>629.4</ele>
        <time>2024-12-02T10:59:18Z</time>
      </trkpt>
      <trkpt lat="43.58439" lon="6.40471">
        <ele>630.2</ele>
        <time>2024-12-02T11:00:16Z</time>
      </trkpt>
      <trkpt lat="43.58437" lon="6.40484">
        <ele>630.1</ele>
        <time>2024-12-02T11:00:28Z</time>
      </trkpt>
      <trkpt lat="43.58445" lon="6.40491">
        <ele>630.1</ele>
        <time>2024-12-02T11:00:41Z</time>
      </trkpt>
      <trkpt lat="43.58447" lon="6.40504">
        <ele>630.1</ele>
        <time>2024-12-02T11:00:50Z</time>
      </trkpt>
      <trkpt lat="43.58449" lon="6.40517">
        <ele>630.4</ele>
        <time>2024-12-02T11:01:00Z</time>
      </trkpt>
      <trkpt lat="43.58453" lon="6.40529">
        <ele>629.8</ele>
        <time>2024-12-02T11:01:10Z</time>
      </trkpt>
      <trkpt lat="43.58456" lon="6.40541">
        <ele>629.8</ele>
        <time>2024-12-02T11:01:32Z</time>
      </trkpt>
      <trkpt lat="43.58463" lon="6.40549">
        <ele>629.6</ele>
        <time>2024-12-02T11:01:59Z</time>
      </trkpt>
      <trkpt lat="43.58471" lon="6.40557">
        <ele>627.8</ele>
        <time>2024-12-02T11:02:30Z</time>
      </trkpt>
      <trkpt lat="43.58478" lon="6.40565">
        <ele>627.1</ele>
        <time>2024-12-02T11:02:40Z</time>
      </trkpt>
      <trkpt lat="43.58485" lon="6.40573">
        <ele>626.3</ele>
        <time>2024-12-02T11:02:51Z</time>
      </trkpt>
      <trkpt lat="43.58493" lon="6.4058">
        <ele>625.8</ele>
        <time>2024-12-02T11:03:01Z</time>
      </trkpt>
      <trkpt lat="43.585" lon="6.40589">
        <ele>625.1</ele>
        <time>2024-12-02T11:03:15Z</time>
      </trkpt>
      <trkpt lat="43.58506" lon="6.406">
        <ele>624.1</ele>
        <time>2024-12-02T11:03:25Z</time>
      </trkpt>
      <trkpt lat="43.58512" lon="6.4061">
        <ele>623.4</ele>
        <time>2024-12-02T11:03:35Z</time>
      </trkpt>
      <trkpt lat="43.58519" lon="6.40619">
        <ele>622.7</ele>
        <time>2024-12-02T11:04:03Z</time>
      </trkpt>
      <trkpt lat="43.58525" lon="6.40628">
        <ele>622.7</ele>
        <time>2024-12-02T11:04:20Z</time>
      </trkpt>
      <trkpt lat="43.58532" lon="6.40637">
        <ele>622.2</ele>
        <time>2024-12-02T11:04:34Z</time>
      </trkpt>
      <trkpt lat="43.58535" lon="6.40649">
        <ele>621.8</ele>
        <time>2024-12-02T11:04:45Z</time>
      </trkpt>
      <trkpt lat="43.58536" lon="6.40662">
        <ele>620.7</ele>
        <time>2024-12-02T11:04:59Z</time>
      </trkpt>
      <trkpt lat="43.58538" lon="6.40675">
        <ele>620.2</ele>
        <time>2024-12-02T11:05:09Z</time>
      </trkpt>
      <trkpt lat="43.58539" lon="6.40688">
        <ele>619.6</ele>
        <time>2024-12-02T11:05:19Z</time>
      </trkpt>
      <trkpt lat="43.58542" lon="6.407">
        <ele>618.8</ele>
        <time>2024-12-02T11:05:33Z</time>
      </trkpt>
      <trkpt lat="43.58543" lon="6.40713">
        <ele>618.8</ele>
        <time>2024-12-02T11:05:45Z</time>
      </trkpt>
      <trkpt lat="43.58544" lon="6.40726">
        <ele>618.5</ele>
        <time>2024-12-02T11:05:55Z</time>
      </trkpt>
      <trkpt lat="43.58546" lon="6.40738">
        <ele>618.5</ele>
        <time>2024-12-02T11:06:14Z</time>
      </trkpt>
      <trkpt lat="43.58546" lon="6.40751">
        <ele>618.1</ele>
        <time>2024-12-02T11:06:30Z</time>
      </trkpt>
      <trkpt lat="43.58542" lon="6.40763">
        <ele>617.8</ele>
        <time>2024-12-02T11:06:43Z</time>
      </trkpt>
      <trkpt lat="43.58538" lon="6.40775">
        <ele>617.5</ele>
        <time>2024-12-02T11:06:55Z</time>
      </trkpt>
      <trkpt lat="43.58535" lon="6.40788">
        <ele>617.4</ele>
        <time>2024-12-02T11:07:04Z</time>
      </trkpt>
      <trkpt lat="43.58534" lon="6.40801">
        <ele>617.3</ele>
        <time>2024-12-02T11:07:13Z</time>
      </trkpt>
      <trkpt lat="43.58533" lon="6.40814">
        <ele>618.1</ele>
        <time>2024-12-02T11:07:22Z</time>
      </trkpt>
      <trkpt lat="43.5853" lon="6.40827">
        <ele>617.1</ele>
        <time>2024-12-02T11:07:33Z</time>
      </trkpt>
      <trkpt lat="43.58527" lon="6.40838">
        <ele>616.2</ele>
        <time>2024-12-02T11:07:48Z</time>
      </trkpt>
      <trkpt lat="43.58521" lon="6.40848">
        <ele>615.7</ele>
        <time>2024-12-02T11:08:00Z</time>
      </trkpt>
      <trkpt lat="43.58516" lon="6.40861">
        <ele>615.5</ele>
        <time>2024-12-02T11:08:11Z</time>
      </trkpt>
      <trkpt lat="43.58514" lon="6.40873">
        <ele>614.9</ele>
        <time>2024-12-02T11:08:28Z</time>
      </trkpt>
      <trkpt lat="43.58513" lon="6.40886">
        <ele>614.8</ele>
        <time>2024-12-02T11:08:45Z</time>
      </trkpt>
      <trkpt lat="43.58512" lon="6.409">
        <ele>614.3</ele>
        <time>2024-12-02T11:08:55Z</time>
      </trkpt>
      <trkpt lat="43.58508" lon="6.40911">
        <ele>613.9</ele>
        <time>2024-12-02T11:09:07Z</time>
      </trkpt>
      <trkpt lat="43.58505" lon="6.40924">
        <ele>613.5</ele>
        <time>2024-12-02T11:09:20Z</time>
      </trkpt>
      <trkpt lat="43.58502" lon="6.40936">
        <ele>613.2</ele>
        <time>2024-12-02T11:09:29Z</time>
      </trkpt>
      <trkpt lat="43.58499" lon="6.40948">
        <ele>613</ele>
        <time>2024-12-02T11:09:39Z</time>
      </trkpt>
      <trkpt lat="43.58497" lon="6.40961">
        <ele>612.6</ele>
        <time>2024-12-02T11:09:49Z</time>
      </trkpt>
      <trkpt lat="43.58495" lon="6.40974">
        <ele>612.3</ele>
        <time>2024-12-02T11:10:00Z</time>
      </trkpt>
      <trkpt lat="43.58496" lon="6.40986">
        <ele>612.3</ele>
        <time>2024-12-02T11:10:10Z</time>
      </trkpt>
      <trkpt lat="43.58495" lon="6.40999">
        <ele>611.5</ele>
        <time>2024-12-02T11:10:21Z</time>
      </trkpt>
      <trkpt lat="43.58494" lon="6.41012">
        <ele>611.4</ele>
        <time>2024-12-02T11:10:29Z</time>
      </trkpt>
      <trkpt lat="43.58491" lon="6.41025">
        <ele>611.3</ele>
        <time>2024-12-02T11:10:40Z</time>
      </trkpt>
      <trkpt lat="43.5849" lon="6.41038">
        <ele>610.5</ele>
        <time>2024-12-02T11:10:51Z</time>
      </trkpt>
      <trkpt lat="43.58489" lon="6.41051">
        <ele>610.8</ele>
        <time>2024-12-02T11:11:13Z</time>
      </trkpt>
      <trkpt lat="43.58498" lon="6.41056">
        <ele>612.9</ele>
        <time>2024-12-02T11:12:08Z</time>
      </trkpt>
      <trkpt lat="43.58505" lon="6.41064">
        <ele>614.2</ele>
        <time>2024-12-02T11:12:18Z</time>
      </trkpt>
      <trkpt lat="43.58509" lon="6.41076">
        <ele>616.3</ele>
        <time>2024-12-02T11:12:30Z</time>
      </trkpt>
      <trkpt lat="43.58512" lon="6.41088">
        <ele>617.4</ele>
        <time>2024-12-02T11:12:41Z</time>
      </trkpt>
      <trkpt lat="43.58516" lon="6.411">
        <ele>618.7</ele>
        <time>2024-12-02T11:12:51Z</time>
      </trkpt>
      <trkpt lat="43.58522" lon="6.41109">
        <ele>620.2</ele>
        <time>2024-12-02T11:13:05Z</time>
      </trkpt>
      <trkpt lat="43.58531" lon="6.41113">
        <ele>622</ele>
        <time>2024-12-02T11:13:18Z</time>
      </trkpt>
      <trkpt lat="43.5854" lon="6.41117">
        <ele>623.4</ele>
        <time>2024-12-02T11:13:29Z</time>
      </trkpt>
      <trkpt lat="43.58548" lon="6.41124">
        <ele>624.6</ele>
        <time>2024-12-02T11:13:42Z</time>
      </trkpt>
      <trkpt lat="43.58557" lon="6.41129">
        <ele>626</ele>
        <time>2024-12-02T11:13:55Z</time>
      </trkpt>
      <trkpt lat="43.58565" lon="6.41134">
        <ele>626.8</ele>
        <time>2024-12-02T11:14:07Z</time>
      </trkpt>
      <trkpt lat="43.58573" lon="6.41141">
        <ele>627.2</ele>
        <time>2024-12-02T11:14:20Z</time>
      </trkpt>
      <trkpt lat="43.58579" lon="6.4115">
        <ele>627.2</ele>
        <time>2024-12-02T11:17:12Z</time>
      </trkpt>
      <trkpt lat="43.58578" lon="6.41163">
        <ele>627.1</ele>
        <time>2024-12-02T11:17:25Z</time>
      </trkpt>
      <trkpt lat="43.58575" lon="6.41176">
        <ele>626.8</ele>
        <time>2024-12-02T11:17:37Z</time>
      </trkpt>
      <trkpt lat="43.58572" lon="6.41188">
        <ele>626.7</ele>
        <time>2024-12-02T11:17:48Z</time>
      </trkpt>
      <trkpt lat="43.58568" lon="6.41201">
        <ele>626.5</ele>
        <time>2024-12-02T11:18:01Z</time>
      </trkpt>
      <trkpt lat="43.58568" lon="6.41214">
        <ele>626.2</ele>
        <time>2024-12-02T11:18:12Z</time>
      </trkpt>
      <trkpt lat="43.58566" lon="6.41227">
        <ele>625.8</ele>
        <time>2024-12-02T11:18:23Z</time>
      </trkpt>
      <trkpt lat="43.58563" lon="6.41239">
        <ele>625.1</ele>
        <time>2024-12-02T11:18:36Z</time>
      </trkpt>
      <trkpt lat="43.58561" lon="6.41251">
        <ele>624.7</ele>
        <time>2024-12-02T11:18:49Z</time>
      </trkpt>
      <trkpt lat="43.5856" lon="6.41264">
        <ele>624.4</ele>
        <time>2024-12-02T11:19:00Z</time>
      </trkpt>
      <trkpt lat="43.58556" lon="6.41276">
        <ele>623.7</ele>
        <time>2024-12-02T11:19:13Z</time>
      </trkpt>
      <trkpt lat="43.5855" lon="6.41286">
        <ele>623.2</ele>
        <time>2024-12-02T11:19:25Z</time>
      </trkpt>
      <trkpt lat="43.58548" lon="6.41299">
        <ele>622.6</ele>
        <time>2024-12-02T11:19:39Z</time>
      </trkpt>
      <trkpt lat="43.58544" lon="6.4131">
        <ele>622.4</ele>
        <time>2024-12-02T11:20:11Z</time>
      </trkpt>
      <trkpt lat="43.58549" lon="6.4132">
        <ele>623.4</ele>
        <time>2024-12-02T11:20:41Z</time>
      </trkpt>
      <trkpt lat="43.58541" lon="6.41326">
        <ele>622.4</ele>
        <time>2024-12-02T11:23:11Z</time>
      </trkpt>
      <trkpt lat="43.58542" lon="6.41338">
        <ele>620.4</ele>
        <time>2024-12-02T11:23:36Z</time>
      </trkpt>
      <trkpt lat="43.58539" lon="6.4135">
        <ele>619.8</ele>
        <time>2024-12-02T11:23:54Z</time>
      </trkpt>
      <trkpt lat="43.58533" lon="6.41359">
        <ele>618.5</ele>
        <time>2024-12-02T11:24:25Z</time>
      </trkpt>
      <trkpt lat="43.5853" lon="6.41371">
        <ele>617</ele>
        <time>2024-12-02T11:24:49Z</time>
      </trkpt>
      <trkpt lat="43.58528" lon="6.41384">
        <ele>616</ele>
        <time>2024-12-02T11:25:06Z</time>
      </trkpt>
      <trkpt lat="43.58521" lon="6.41393">
        <ele>615.2</ele>
        <time>2024-12-02T11:25:31Z</time>
      </trkpt>
      <trkpt lat="43.58522" lon="6.41406">
        <ele>614.1</ele>
        <time>2024-12-02T11:25:56Z</time>
      </trkpt>
      <trkpt lat="43.58525" lon="6.41418">
        <ele>613.8</ele>
        <time>2024-12-02T11:26:12Z</time>
      </trkpt>
      <trkpt lat="43.58526" lon="6.4143">
        <ele>613</ele>
        <time>2024-12-02T11:26:44Z</time>
      </trkpt>
      <trkpt lat="43.58527" lon="6.41443">
        <ele>612.7</ele>
        <time>2024-12-02T11:27:12Z</time>
      </trkpt>
      <trkpt lat="43.58531" lon="6.41455">
        <ele>611.3</ele>
        <time>2024-12-02T11:27:46Z</time>
      </trkpt>
      <trkpt lat="43.58537" lon="6.41464">
        <ele>611.5</ele>
        <time>2024-12-02T11:28:05Z</time>
      </trkpt>
      <trkpt lat="43.58539" lon="6.41477">
        <ele>610.9</ele>
        <time>2024-12-02T11:28:26Z</time>
      </trkpt>
      <trkpt lat="43.58538" lon="6.41489">
        <ele>611</ele>
        <time>2024-12-02T11:28:55Z</time>
      </trkpt>
      <trkpt lat="43.58533" lon="6.415">
        <ele>610.9</ele>
        <time>2024-12-02T11:29:15Z</time>
      </trkpt>
      <trkpt lat="43.58529" lon="6.41512">
        <ele>611.1</ele>
        <time>2024-12-02T11:29:34Z</time>
      </trkpt>
      <trkpt lat="43.58525" lon="6.41524">
        <ele>613.1</ele>
        <time>2024-12-02T11:30:07Z</time>
      </trkpt>
      <trkpt lat="43.58519" lon="6.41533">
        <ele>613.2</ele>
        <time>2024-12-02T11:31:52Z</time>
      </trkpt>
      <trkpt lat="43.58514" lon="6.41544">
        <ele>613.3</ele>
        <time>2024-12-02T11:32:12Z</time>
      </trkpt>
      <trkpt lat="43.58514" lon="6.41556">
        <ele>612.6</ele>
        <time>2024-12-02T11:32:40Z</time>
      </trkpt>
      <trkpt lat="43.58508" lon="6.41566">
        <ele>612.2</ele>
        <time>2024-12-02T11:32:58Z</time>
      </trkpt>
      <trkpt lat="43.58504" lon="6.41578">
        <ele>612.1</ele>
        <time>2024-12-02T11:33:23Z</time>
      </trkpt>
      <trkpt lat="43.58499" lon="6.41588">
        <ele>611.6</ele>
        <time>2024-12-02T11:33:39Z</time>
      </trkpt>
      <trkpt lat="43.58498" lon="6.416">
        <ele>611.2</ele>
        <time>2024-12-02T11:34:02Z</time>
      </trkpt>
      <trkpt lat="43.58493" lon="6.41611">
        <ele>611.4</ele>
        <time>2024-12-02T11:34:29Z</time>
      </trkpt>
      <trkpt lat="43.58495" lon="6.41624">
        <ele>611</ele>
        <time>2024-12-02T11:34:55Z</time>
      </trkpt>
      <trkpt lat="43.58494" lon="6.41637">
        <ele>611.5</ele>
        <time>2024-12-02T11:35:12Z</time>
      </trkpt>
      <trkpt lat="43.58494" lon="6.41649">
        <ele>611</ele>
        <time>2024-12-02T11:35:29Z</time>
      </trkpt>
      <trkpt lat="43.58496" lon="6.41662">
        <ele>610.8</ele>
        <time>2024-12-02T11:35:46Z</time>
      </trkpt>
      <trkpt lat="43.58492" lon="6.41673">
        <ele>610.1</ele>
        <time>2024-12-02T11:36:16Z</time>
      </trkpt>
      <trkpt lat="43.58485" lon="6.41682">
        <ele>609.8</ele>
        <time>2024-12-02T11:37:04Z</time>
      </trkpt>
      <trkpt lat="43.58477" lon="6.41687">
        <ele>610.6</ele>
        <time>2024-12-02T11:37:58Z</time>
      </trkpt>
      <trkpt lat="43.58469" lon="6.41681">
        <ele>609.7</ele>
        <time>2024-12-02T11:50:38Z</time>
      </trkpt>
      <trkpt lat="43.58478" lon="6.41684">
        <ele>603.4</ele>
        <time>2024-12-02T12:27:11Z</time>
      </trkpt>
      <trkpt lat="43.58487" lon="6.41681">
        <ele>595.2</ele>
        <time>2024-12-02T12:38:14Z</time>
      </trkpt>
      <trkpt lat="43.58491" lon="6.41669">
        <ele>593.4</ele>
        <time>2024-12-02T12:40:41Z</time>
      </trkpt>
      <trkpt lat="43.58491" lon="6.41657">
        <ele>594.1</ele>
        <time>2024-12-02T12:40:55Z</time>
      </trkpt>
      <trkpt lat="43.58492" lon="6.41644">
        <ele>594.5</ele>
        <time>2024-12-02T12:41:07Z</time>
      </trkpt>
      <trkpt lat="43.58494" lon="6.41631">
        <ele>594.4</ele>
        <time>2024-12-02T12:41:20Z</time>
      </trkpt>
      <trkpt lat="43.5849" lon="6.4162">
        <ele>594.1</ele>
        <time>2024-12-02T12:41:37Z</time>
      </trkpt>
      <trkpt lat="43.58496" lon="6.4161">
        <ele>594.1</ele>
        <time>2024-12-02T12:41:55Z</time>
      </trkpt>
      <trkpt lat="43.58494" lon="6.41598">
        <ele>593.8</ele>
        <time>2024-12-02T12:42:20Z</time>
      </trkpt>
      <trkpt lat="43.58499" lon="6.41587">
        <ele>593.9</ele>
        <time>2024-12-02T12:42:33Z</time>
      </trkpt>
      <trkpt lat="43.58505" lon="6.41576">
        <ele>594.3</ele>
        <time>2024-12-02T12:42:46Z</time>
      </trkpt>
      <trkpt lat="43.58509" lon="6.41565">
        <ele>594.4</ele>
        <time>2024-12-02T12:43:01Z</time>
      </trkpt>
      <trkpt lat="43.58513" lon="6.41553">
        <ele>594.5</ele>
        <time>2024-12-02T12:43:16Z</time>
      </trkpt>
      <trkpt lat="43.58518" lon="6.41541">
        <ele>594.6</ele>
        <time>2024-12-02T12:43:26Z</time>
      </trkpt>
      <trkpt lat="43.58523" lon="6.41531">
        <ele>595.1</ele>
        <time>2024-12-02T12:43:42Z</time>
      </trkpt>
      <trkpt lat="43.58526" lon="6.41519">
        <ele>591.9</ele>
        <time>2024-12-02T12:45:46Z</time>
      </trkpt>
      <trkpt lat="43.58531" lon="6.41508">
        <ele>590.3</ele>
        <time>2024-12-02T12:46:04Z</time>
      </trkpt>
      <trkpt lat="43.58534" lon="6.41496">
        <ele>590</ele>
        <time>2024-12-02T12:46:22Z</time>
      </trkpt>
      <trkpt lat="43.58537" lon="6.41484">
        <ele>590.2</ele>
        <time>2024-12-02T12:46:36Z</time>
      </trkpt>
      <trkpt lat="43.58533" lon="6.41472">
        <ele>590.4</ele>
        <time>2024-12-02T12:46:46Z</time>
      </trkpt>
      <trkpt lat="43.58529" lon="6.4146">
        <ele>591.1</ele>
        <time>2024-12-02T12:46:55Z</time>
      </trkpt>
      <trkpt lat="43.58527" lon="6.41448">
        <ele>592.1</ele>
        <time>2024-12-02T12:47:06Z</time>
      </trkpt>
      <trkpt lat="43.58527" lon="6.41435">
        <ele>592.4</ele>
        <time>2024-12-02T12:47:28Z</time>
      </trkpt>
      <trkpt lat="43.58522" lon="6.41424">
        <ele>592.8</ele>
        <time>2024-12-02T12:47:40Z</time>
      </trkpt>
      <trkpt lat="43.5852" lon="6.41412">
        <ele>593.2</ele>
        <time>2024-12-02T12:47:55Z</time>
      </trkpt>
      <trkpt lat="43.58523" lon="6.414">
        <ele>594.4</ele>
        <time>2024-12-02T12:48:14Z</time>
      </trkpt>
      <trkpt lat="43.58525" lon="6.41387">
        <ele>595.1</ele>
        <time>2024-12-02T12:48:25Z</time>
      </trkpt>
      <trkpt lat="43.58528" lon="6.41375">
        <ele>596.4</ele>
        <time>2024-12-02T12:48:38Z</time>
      </trkpt>
      <trkpt lat="43.58533" lon="6.41363">
        <ele>598</ele>
        <time>2024-12-02T12:48:54Z</time>
      </trkpt>
      <trkpt lat="43.58538" lon="6.41352">
        <ele>599.3</ele>
        <time>2024-12-02T12:49:08Z</time>
      </trkpt>
      <trkpt lat="43.58539" lon="6.41339">
        <ele>600.4</ele>
        <time>2024-12-02T12:49:25Z</time>
      </trkpt>
      <trkpt lat="43.5854" lon="6.41327">
        <ele>601.7</ele>
        <time>2024-12-02T12:49:45Z</time>
      </trkpt>
      <trkpt lat="43.58545" lon="6.41315">
        <ele>602.5</ele>
        <time>2024-12-02T12:50:18Z</time>
      </trkpt>
      <trkpt lat="43.58548" lon="6.41303">
        <ele>602.6</ele>
        <time>2024-12-02T12:50:31Z</time>
      </trkpt>
      <trkpt lat="43.58552" lon="6.41291">
        <ele>603.1</ele>
        <time>2024-12-02T12:50:40Z</time>
      </trkpt>
      <trkpt lat="43.58558" lon="6.4128">
        <ele>603.5</ele>
        <time>2024-12-02T12:50:49Z</time>
      </trkpt>
      <trkpt lat="43.58561" lon="6.41268">
        <ele>604</ele>
        <time>2024-12-02T12:50:59Z</time>
      </trkpt>
      <trkpt lat="43.58561" lon="6.41255">
        <ele>604.6</ele>
        <time>2024-12-02T12:51:11Z</time>
      </trkpt>
      <trkpt lat="43.58564" lon="6.41243">
        <ele>605.2</ele>
        <time>2024-12-02T12:51:27Z</time>
      </trkpt>
      <trkpt lat="43.58565" lon="6.41231">
        <ele>605.4</ele>
        <time>2024-12-02T12:51:39Z</time>
      </trkpt>
      <trkpt lat="43.58566" lon="6.41217">
        <ele>605.8</ele>
        <time>2024-12-02T12:51:53Z</time>
      </trkpt>
      <trkpt lat="43.58571" lon="6.41205">
        <ele>606.3</ele>
        <time>2024-12-02T12:52:06Z</time>
      </trkpt>
      <trkpt lat="43.58576" lon="6.41194">
        <ele>606.6</ele>
        <time>2024-12-02T12:52:16Z</time>
      </trkpt>
      <trkpt lat="43.58579" lon="6.41182">
        <ele>606.9</ele>
        <time>2024-12-02T12:52:26Z</time>
      </trkpt>
      <trkpt lat="43.5858" lon="6.41169">
        <ele>607.1</ele>
        <time>2024-12-02T12:52:37Z</time>
      </trkpt>
      <trkpt lat="43.5858" lon="6.41156">
        <ele>607.4</ele>
        <time>2024-12-02T12:52:48Z</time>
      </trkpt>
      <trkpt lat="43.58581" lon="6.41143">
        <ele>607.6</ele>
        <time>2024-12-02T12:53:02Z</time>
      </trkpt>
      <trkpt lat="43.58591" lon="6.4114">
        <ele>608.3</ele>
        <time>2024-12-02T12:59:43Z</time>
      </trkpt>
      <trkpt lat="43.586" lon="6.41142">
        <ele>608.5</ele>
        <time>2024-12-02T12:59:55Z</time>
      </trkpt>
      <trkpt lat="43.58609" lon="6.41143">
        <ele>608.6</ele>
        <time>2024-12-02T13:00:19Z</time>
      </trkpt>
      <trkpt lat="43.586" lon="6.41142">
        <ele>608.9</ele>
        <time>2024-12-02T13:01:26Z</time>
      </trkpt>
      <trkpt lat="43.58591" lon="6.41141">
        <ele>609.2</ele>
        <time>2024-12-02T13:01:43Z</time>
      </trkpt>
      <trkpt lat="43.58584" lon="6.41132">
        <ele>609</ele>
        <time>2024-12-02T13:01:55Z</time>
      </trkpt>
      <trkpt lat="43.58586" lon="6.41119">
        <ele>609.6</ele>
        <time>2024-12-02T13:02:11Z</time>
      </trkpt>
      <trkpt lat="43.5859" lon="6.41108">
        <ele>610.1</ele>
        <time>2024-12-02T13:02:29Z</time>
      </trkpt>
      <trkpt lat="43.58595" lon="6.41096">
        <ele>610.5</ele>
        <time>2024-12-02T13:02:44Z</time>
      </trkpt>
      <trkpt lat="43.58598" lon="6.41084">
        <ele>610.8</ele>
        <time>2024-12-02T13:02:56Z</time>
      </trkpt>
      <trkpt lat="43.58599" lon="6.41071">
        <ele>611.1</ele>
        <time>2024-12-02T13:03:10Z</time>
      </trkpt>
      <trkpt lat="43.58602" lon="6.41058">
        <ele>611.7</ele>
        <time>2024-12-02T13:03:29Z</time>
      </trkpt>
      <trkpt lat="43.58608" lon="6.41048">
        <ele>611.5</ele>
        <time>2024-12-02T13:03:47Z</time>
      </trkpt>
      <trkpt lat="43.58614" lon="6.41037">
        <ele>611.6</ele>
        <time>2024-12-02T13:04:01Z</time>
      </trkpt>
      <trkpt lat="43.58617" lon="6.41025">
        <ele>612</ele>
        <time>2024-12-02T13:04:17Z</time>
      </trkpt>
      <trkpt lat="43.58622" lon="6.41014">
        <ele>612.4</ele>
        <time>2024-12-02T13:04:29Z</time>
      </trkpt>
      <trkpt lat="43.58629" lon="6.41004">
        <ele>612.7</ele>
        <time>2024-12-02T13:04:41Z</time>
      </trkpt>
      <trkpt lat="43.58638" lon="6.41">
        <ele>612.9</ele>
        <time>2024-12-02T13:04:59Z</time>
      </trkpt>
      <trkpt lat="43.58647" lon="6.41">
        <ele>612.7</ele>
        <time>2024-12-02T13:05:20Z</time>
      </trkpt>
      <trkpt lat="43.58655" lon="6.40993">
        <ele>612.6</ele>
        <time>2024-12-02T13:05:33Z</time>
      </trkpt>
      <trkpt lat="43.58663" lon="6.40987">
        <ele>612.9</ele>
        <time>2024-12-02T13:05:47Z</time>
      </trkpt>
      <trkpt lat="43.58671" lon="6.40981">
        <ele>612.6</ele>
        <time>2024-12-02T13:06:11Z</time>
      </trkpt>
      <trkpt lat="43.58681" lon="6.4098">
        <ele>612.7</ele>
        <time>2024-12-02T13:06:47Z</time>
      </trkpt>
      <trkpt lat="43.5869" lon="6.40977">
        <ele>611.7</ele>
        <time>2024-12-02T13:07:02Z</time>
      </trkpt>
      <trkpt lat="43.58698" lon="6.40971">
        <ele>611.9</ele>
        <time>2024-12-02T13:07:23Z</time>
      </trkpt>
      <trkpt lat="43.58704" lon="6.40961">
        <ele>612</ele>
        <time>2024-12-02T13:07:41Z</time>
      </trkpt>
      <trkpt lat="43.58708" lon="6.4095">
        <ele>612.7</ele>
        <time>2024-12-02T13:07:56Z</time>
      </trkpt>
      <trkpt lat="43.58714" lon="6.40939">
        <ele>612.9</ele>
        <time>2024-12-02T13:08:08Z</time>
      </trkpt>
      <trkpt lat="43.58719" lon="6.40928">
        <ele>613.4</ele>
        <time>2024-12-02T13:08:26Z</time>
      </trkpt>
      <trkpt lat="43.58724" lon="6.40917">
        <ele>613.7</ele>
        <time>2024-12-02T13:08:39Z</time>
      </trkpt>
      <trkpt lat="43.58725" lon="6.40904">
        <ele>614.7</ele>
        <time>2024-12-02T13:08:53Z</time>
      </trkpt>
      <trkpt lat="43.58729" lon="6.40892">
        <ele>615.7</ele>
        <time>2024-12-02T13:09:09Z</time>
      </trkpt>
      <trkpt lat="43.58731" lon="6.4088">
        <ele>616.1</ele>
        <time>2024-12-02T13:09:20Z</time>
      </trkpt>
      <trkpt lat="43.58733" lon="6.40868">
        <ele>616.1</ele>
        <time>2024-12-02T13:09:34Z</time>
      </trkpt>
      <trkpt lat="43.58737" lon="6.40856">
        <ele>616.4</ele>
        <time>2024-12-02T13:09:53Z</time>
      </trkpt>
      <trkpt lat="43.58743" lon="6.40847">
        <ele>616.4</ele>
        <time>2024-12-02T13:10:08Z</time>
      </trkpt>
      <trkpt lat="43.58749" lon="6.40837">
        <ele>615.6</ele>
        <time>2024-12-02T13:10:25Z</time>
      </trkpt>
      <trkpt lat="43.58753" lon="6.40825">
        <ele>615.6</ele>
        <time>2024-12-02T13:10:39Z</time>
      </trkpt>
      <trkpt lat="43.58753" lon="6.40812">
        <ele>615.8</ele>
        <time>2024-12-02T13:10:59Z</time>
      </trkpt>
      <trkpt lat="43.58758" lon="6.408">
        <ele>615.4</ele>
        <time>2024-12-02T13:11:18Z</time>
      </trkpt>
      <trkpt lat="43.58763" lon="6.40791">
        <ele>614.8</ele>
        <time>2024-12-02T13:11:33Z</time>
      </trkpt>
      <trkpt lat="43.58766" lon="6.40778">
        <ele>614.2</ele>
        <time>2024-12-02T13:11:49Z</time>
      </trkpt>
      <trkpt lat="43.58767" lon="6.40766">
        <ele>614.2</ele>
        <time>2024-12-02T13:12:12Z</time>
      </trkpt>
      <trkpt lat="43.58766" lon="6.40753">
        <ele>615.2</ele>
        <time>2024-12-02T13:12:35Z</time>
      </trkpt>
      <trkpt lat="43.58772" lon="6.40741">
        <ele>615.4</ele>
        <time>2024-12-02T13:12:51Z</time>
      </trkpt>
      <trkpt lat="43.58773" lon="6.40728">
        <ele>615.4</ele>
        <time>2024-12-02T13:13:04Z</time>
      </trkpt>
      <trkpt lat="43.58777" lon="6.40717">
        <ele>615</ele>
        <time>2024-12-02T13:13:16Z</time>
      </trkpt>
      <trkpt lat="43.58781" lon="6.40706">
        <ele>614.6</ele>
        <time>2024-12-02T13:13:29Z</time>
      </trkpt>
      <trkpt lat="43.58786" lon="6.40695">
        <ele>613.8</ele>
        <time>2024-12-02T13:13:42Z</time>
      </trkpt>
      <trkpt lat="43.58783" lon="6.40683">
        <ele>613.9</ele>
        <time>2024-12-02T13:13:53Z</time>
      </trkpt>
      <trkpt lat="43.58786" lon="6.40671">
        <ele>613.5</ele>
        <time>2024-12-02T13:14:12Z</time>
      </trkpt>
      <trkpt lat="43.58788" lon="6.40658">
        <ele>613.4</ele>
        <time>2024-12-02T13:14:25Z</time>
      </trkpt>
      <trkpt lat="43.58788" lon="6.40645">
        <ele>613.1</ele>
        <time>2024-12-02T13:14:37Z</time>
      </trkpt>
      <trkpt lat="43.58794" lon="6.40635">
        <ele>613.4</ele>
        <time>2024-12-02T13:15:26Z</time>
      </trkpt>
      <trkpt lat="43.58801" lon="6.40627">
        <ele>613.2</ele>
        <time>2024-12-02T13:15:44Z</time>
      </trkpt>
      <trkpt lat="43.58806" lon="6.40615">
        <ele>612.8</ele>
        <time>2024-12-02T13:16:00Z</time>
      </trkpt>
      <trkpt lat="43.58812" lon="6.40606">
        <ele>612.6</ele>
        <time>2024-12-02T13:16:13Z</time>
      </trkpt>
      <trkpt lat="43.58818" lon="6.40596">
        <ele>612.2</ele>
        <time>2024-12-02T13:16:27Z</time>
      </trkpt>
      <trkpt lat="43.58824" lon="6.40586">
        <ele>611.9</ele>
        <time>2024-12-02T13:16:42Z</time>
      </trkpt>
      <trkpt lat="43.58829" lon="6.40575">
        <ele>612</ele>
        <time>2024-12-02T13:16:55Z</time>
      </trkpt>
      <trkpt lat="43.58835" lon="6.40565">
        <ele>611.9</ele>
        <time>2024-12-02T13:17:09Z</time>
      </trkpt>
      <trkpt lat="43.5884" lon="6.40555">
        <ele>612</ele>
        <time>2024-12-02T13:17:36Z</time>
      </trkpt>
      <trkpt lat="43.58845" lon="6.40544">
        <ele>612.2</ele>
        <time>2024-12-02T13:17:51Z</time>
      </trkpt>
      <trkpt lat="43.58845" lon="6.40531">
        <ele>612.6</ele>
        <time>2024-12-02T13:18:05Z</time>
      </trkpt>
      <trkpt lat="43.58848" lon="6.40518">
        <ele>612.9</ele>
        <time>2024-12-02T13:18:16Z</time>
      </trkpt>
      <trkpt lat="43.58857" lon="6.40516">
        <ele>613.5</ele>
        <time>2024-12-02T13:21:13Z</time>
      </trkpt>
      <trkpt lat="43.58867" lon="6.40514">
        <ele>613.4</ele>
        <time>2024-12-02T13:21:25Z</time>
      </trkpt>
      <trkpt lat="43.58876" lon="6.40511">
        <ele>613.3</ele>
        <time>2024-12-02T13:21:36Z</time>
      </trkpt>
      <trkpt lat="43.58885" lon="6.40509">
        <ele>613</ele>
        <time>2024-12-02T13:21:46Z</time>
      </trkpt>
      <trkpt lat="43.58894" lon="6.40504">
        <ele>613</ele>
        <time>2024-12-02T13:21:58Z</time>
      </trkpt>
      <trkpt lat="43.58902" lon="6.40496">
        <ele>612.7</ele>
        <time>2024-12-02T13:22:12Z</time>
      </trkpt>
      <trkpt lat="43.58909" lon="6.40489">
        <ele>612.5</ele>
        <time>2024-12-02T13:22:22Z</time>
      </trkpt>
      <trkpt lat="43.58916" lon="6.4048">
        <ele>612.4</ele>
        <time>2024-12-02T13:22:35Z</time>
      </trkpt>
      <trkpt lat="43.5892" lon="6.40469">
        <ele>613</ele>
        <time>2024-12-02T13:22:47Z</time>
      </trkpt>
      <trkpt lat="43.58926" lon="6.40458">
        <ele>613.2</ele>
        <time>2024-12-02T13:22:58Z</time>
      </trkpt>
      <trkpt lat="43.58931" lon="6.40447">
        <ele>613.5</ele>
        <time>2024-12-02T13:23:13Z</time>
      </trkpt>
      <trkpt lat="43.58935" lon="6.40435">
        <ele>613.7</ele>
        <time>2024-12-02T13:23:26Z</time>
      </trkpt>
      <trkpt lat="43.58941" lon="6.40425">
        <ele>614.1</ele>
        <time>2024-12-02T13:23:38Z</time>
      </trkpt>
      <trkpt lat="43.58947" lon="6.40415">
        <ele>614.3</ele>
        <time>2024-12-02T13:23:55Z</time>
      </trkpt>
      <trkpt lat="43.58954" lon="6.40406">
        <ele>614.9</ele>
        <time>2024-12-02T13:24:07Z</time>
      </trkpt>
      <trkpt lat="43.58961" lon="6.40397">
        <ele>615.4</ele>
        <time>2024-12-02T13:24:17Z</time>
      </trkpt>
      <trkpt lat="43.58967" lon="6.40387">
        <ele>615.9</ele>
        <time>2024-12-02T13:24:28Z</time>
      </trkpt>
      <trkpt lat="43.58974" lon="6.40378">
        <ele>616.2</ele>
        <time>2024-12-02T13:24:41Z</time>
      </trkpt>
      <trkpt lat="43.58978" lon="6.40367">
        <ele>616.4</ele>
        <time>2024-12-02T13:24:55Z</time>
      </trkpt>
      <trkpt lat="43.58984" lon="6.40356">
        <ele>616.7</ele>
        <time>2024-12-02T13:25:08Z</time>
      </trkpt>
      <trkpt lat="43.58987" lon="6.40343">
        <ele>617.2</ele>
        <time>2024-12-02T13:25:18Z</time>
      </trkpt>
      <trkpt lat="43.5899" lon="6.40331">
        <ele>617.7</ele>
        <time>2024-12-02T13:25:29Z</time>
      </trkpt>
      <trkpt lat="43.58995" lon="6.40319">
        <ele>618.2</ele>
        <time>2024-12-02T13:25:41Z</time>
      </trkpt>
      <trkpt lat="43.59" lon="6.40309">
        <ele>618.5</ele>
        <time>2024-12-02T13:26:08Z</time>
      </trkpt>
      <trkpt lat="43.59005" lon="6.40298">
        <ele>618.6</ele>
        <time>2024-12-02T13:26:27Z</time>
      </trkpt>
      <trkpt lat="43.59011" lon="6.40287">
        <ele>619.1</ele>
        <time>2024-12-02T13:26:41Z</time>
      </trkpt>
      <trkpt lat="43.59012" lon="6.40275">
        <ele>619.6</ele>
        <time>2024-12-02T13:26:57Z</time>
      </trkpt>
      <trkpt lat="43.59018" lon="6.40265">
        <ele>619.9</ele>
        <time>2024-12-02T13:27:10Z</time>
      </trkpt>
      <trkpt lat="43.59026" lon="6.40257">
        <ele>619.8</ele>
        <time>2024-12-02T13:27:22Z</time>
      </trkpt>
      <trkpt lat="43.59034" lon="6.40251">
        <ele>619.5</ele>
        <time>2024-12-02T13:27:33Z</time>
      </trkpt>
      <trkpt lat="43.59041" lon="6.40242">
        <ele>619</ele>
        <time>2024-12-02T13:27:44Z</time>
      </trkpt>
      <trkpt lat="43.59045" lon="6.4023">
        <ele>619</ele>
        <time>2024-12-02T13:27:58Z</time>
      </trkpt>
      <trkpt lat="43.59051" lon="6.40221">
        <ele>618.3</ele>
        <time>2024-12-02T13:28:14Z</time>
      </trkpt>
      <trkpt lat="43.59057" lon="6.40212">
        <ele>617.8</ele>
        <time>2024-12-02T13:28:25Z</time>
      </trkpt>
      <trkpt lat="43.59062" lon="6.40201">
        <ele>617.1</ele>
        <time>2024-12-02T13:28:38Z</time>
      </trkpt>
      <trkpt lat="43.59065" lon="6.40188">
        <ele>616.9</ele>
        <time>2024-12-02T13:28:50Z</time>
      </trkpt>
      <trkpt lat="43.59069" lon="6.40176">
        <ele>616.7</ele>
        <time>2024-12-02T13:29:02Z</time>
      </trkpt>
      <trkpt lat="43.59072" lon="6.40164">
        <ele>616.8</ele>
        <time>2024-12-02T13:29:12Z</time>
      </trkpt>
      <trkpt lat="43.59075" lon="6.40152">
        <ele>616.3</ele>
        <time>2024-12-02T13:29:25Z</time>
      </trkpt>
      <trkpt lat="43.59078" lon="6.40139">
        <ele>615.8</ele>
        <time>2024-12-02T13:29:38Z</time>
      </trkpt>
      <trkpt lat="43.59083" lon="6.40129">
        <ele>615.2</ele>
        <time>2024-12-02T13:29:51Z</time>
      </trkpt>
      <trkpt lat="43.59092" lon="6.40124">
        <ele>615</ele>
        <time>2024-12-02T13:30:06Z</time>
      </trkpt>
      <trkpt lat="43.591" lon="6.40118">
        <ele>614.9</ele>
        <time>2024-12-02T13:30:18Z</time>
      </trkpt>
      <trkpt lat="43.59107" lon="6.4011">
        <ele>614.7</ele>
        <time>2024-12-02T13:30:32Z</time>
      </trkpt>
      <trkpt lat="43.59114" lon="6.40101">
        <ele>614.6</ele>
        <time>2024-12-02T13:31:03Z</time>
      </trkpt>
      <trkpt lat="43.59119" lon="6.40091">
        <ele>614.6</ele>
        <time>2024-12-02T13:31:15Z</time>
      </trkpt>
      <trkpt lat="43.59126" lon="6.40082">
        <ele>614.5</ele>
        <time>2024-12-02T13:31:21Z</time>
      </trkpt>
      <trkpt lat="43.59132" lon="6.40073">
        <ele>614.6</ele>
        <time>2024-12-02T13:31:29Z</time>
      </trkpt>
      <trkpt lat="43.59139" lon="6.40064">
        <ele>614.8</ele>
        <time>2024-12-02T13:31:40Z</time>
      </trkpt>
      <trkpt lat="43.59146" lon="6.40056">
        <ele>614.5</ele>
        <time>2024-12-02T13:31:52Z</time>
      </trkpt>
      <trkpt lat="43.5915" lon="6.40044">
        <ele>614.3</ele>
        <time>2024-12-02T13:32:02Z</time>
      </trkpt>
      <trkpt lat="43.59158" lon="6.40037">
        <ele>614</ele>
        <time>2024-12-02T13:32:17Z</time>
      </trkpt>
      <trkpt lat="43.59161" lon="6.40025">
        <ele>614.4</ele>
        <time>2024-12-02T13:36:04Z</time>
      </trkpt>
      <trkpt lat="43.59166" lon="6.40035">
        <ele>613.6</ele>
        <time>2024-12-02T13:37:15Z</time>
      </trkpt>
      <trkpt lat="43.59174" lon="6.40042">
        <ele>612.5</ele>
        <time>2024-12-02T13:37:38Z</time>
      </trkpt>
      <trkpt lat="43.59182" lon="6.40049">
        <ele>611.2</ele>
        <time>2024-12-02T13:37:50Z</time>
      </trkpt>
      <trkpt lat="43.59191" lon="6.40053">
        <ele>609.4</ele>
        <time>2024-12-02T13:38:03Z</time>
      </trkpt>
      <trkpt lat="43.592" lon="6.40051">
        <ele>608.2</ele>
        <time>2024-12-02T13:38:18Z</time>
      </trkpt>
      <trkpt lat="43.59209" lon="6.40047">
        <ele>606.6</ele>
        <time>2024-12-02T13:38:30Z</time>
      </trkpt>
      <trkpt lat="43.59218" lon="6.40049">
        <ele>605.6</ele>
        <time>2024-12-02T13:38:40Z</time>
      </trkpt>
      <trkpt lat="43.59227" lon="6.40046">
        <ele>604.8</ele>
        <time>2024-12-02T13:39:00Z</time>
      </trkpt>
      <trkpt lat="43.59236" lon="6.40044">
        <ele>602.9</ele>
        <time>2024-12-02T13:39:17Z</time>
      </trkpt>
      <trkpt lat="43.59245" lon="6.40043">
        <ele>600.9</ele>
        <time>2024-12-02T13:39:31Z</time>
      </trkpt>
      <trkpt lat="43.59253" lon="6.40038">
        <ele>599.5</ele>
        <time>2024-12-02T13:39:50Z</time>
      </trkpt>
      <trkpt lat="43.59261" lon="6.40031">
        <ele>598.9</ele>
        <time>2024-12-02T13:40:02Z</time>
      </trkpt>
      <trkpt lat="43.59269" lon="6.40025">
        <ele>598.1</ele>
        <time>2024-12-02T13:40:12Z</time>
      </trkpt>
      <trkpt lat="43.59278" lon="6.40019">
        <ele>597.6</ele>
        <time>2024-12-02T13:40:22Z</time>
      </trkpt>
      <trkpt lat="43.59285" lon="6.40012">
        <ele>597</ele>
        <time>2024-12-02T13:40:32Z</time>
      </trkpt>
      <trkpt lat="43.59292" lon="6.40003">
        <ele>596.3</ele>
        <time>2024-12-02T13:40:43Z</time>
      </trkpt>
      <trkpt lat="43.59299" lon="6.39995">
        <ele>595.2</ele>
        <time>2024-12-02T13:40:55Z</time>
      </trkpt>
      <trkpt lat="43.59307" lon="6.39987">
        <ele>593.7</ele>
        <time>2024-12-02T13:41:07Z</time>
      </trkpt>
      <trkpt lat="43.59314" lon="6.39979">
        <ele>592.3</ele>
        <time>2024-12-02T13:41:19Z</time>
      </trkpt>
      <trkpt lat="43.59321" lon="6.3997">
        <ele>591.1</ele>
        <time>2024-12-02T13:41:39Z</time>
      </trkpt>
      <trkpt lat="43.59327" lon="6.39959">
        <ele>590.8</ele>
        <time>2024-12-02T13:41:54Z</time>
      </trkpt>
      <trkpt lat="43.59332" lon="6.39948">
        <ele>590.7</ele>
        <time>2024-12-02T13:42:02Z</time>
      </trkpt>
      <trkpt lat="43.59337" lon="6.39937">
        <ele>590.6</ele>
        <time>2024-12-02T13:42:12Z</time>
      </trkpt>
      <trkpt lat="43.59343" lon="6.39926">
        <ele>590.1</ele>
        <time>2024-12-02T13:42:22Z</time>
      </trkpt>
      <trkpt lat="43.59345" lon="6.39914">
        <ele>589.1</ele>
        <time>2024-12-02T13:42:33Z</time>
      </trkpt>
      <trkpt lat="43.59351" lon="6.39903">
        <ele>588.2</ele>
        <time>2024-12-02T13:42:42Z</time>
      </trkpt>
      <trkpt lat="43.59356" lon="6.39892">
        <ele>587.9</ele>
        <time>2024-12-02T13:42:52Z</time>
      </trkpt>
      <trkpt lat="43.59362" lon="6.39881">
        <ele>587.9</ele>
        <time>2024-12-02T13:43:01Z</time>
      </trkpt>
      <trkpt lat="43.59367" lon="6.3987">
        <ele>588</ele>
        <time>2024-12-02T13:43:09Z</time>
      </trkpt>
      <trkpt lat="43.59373" lon="6.3986">
        <ele>588.1</ele>
        <time>2024-12-02T13:43:17Z</time>
      </trkpt>
      <trkpt lat="43.5938" lon="6.39851">
        <ele>587.5</ele>
        <time>2024-12-02T13:43:27Z</time>
      </trkpt>
      <trkpt lat="43.59384" lon="6.39839">
        <ele>586.9</ele>
        <time>2024-12-02T13:43:36Z</time>
      </trkpt>
      <trkpt lat="43.59388" lon="6.39828">
        <ele>587</ele>
        <time>2024-12-02T13:43:45Z</time>
      </trkpt>
      <trkpt lat="43.59392" lon="6.39816">
        <ele>587.1</ele>
        <time>2024-12-02T13:43:55Z</time>
      </trkpt>
      <trkpt lat="43.59398" lon="6.39805">
        <ele>586.5</ele>
        <time>2024-12-02T13:44:05Z</time>
      </trkpt>
      <trkpt lat="43.59404" lon="6.39795">
        <ele>585.4</ele>
        <time>2024-12-02T13:44:15Z</time>
      </trkpt>
      <trkpt lat="43.59408" lon="6.39784">
        <ele>584.1</ele>
        <time>2024-12-02T13:44:24Z</time>
      </trkpt>
      <trkpt lat="43.59411" lon="6.39771">
        <ele>583.5</ele>
        <time>2024-12-02T13:44:33Z</time>
      </trkpt>
      <trkpt lat="43.59414" lon="6.39758">
        <ele>582.9</ele>
        <time>2024-12-02T13:44:42Z</time>
      </trkpt>
      <trkpt lat="43.59416" lon="6.39746">
        <ele>582.2</ele>
        <time>2024-12-02T13:44:51Z</time>
      </trkpt>
      <trkpt lat="43.59419" lon="6.39734">
        <ele>580.7</ele>
        <time>2024-12-02T13:45:43Z</time>
      </trkpt>
      <trkpt lat="43.59424" lon="6.39724">
        <ele>579.9</ele>
        <time>2024-12-02T13:46:50Z</time>
      </trkpt>
      <trkpt lat="43.59429" lon="6.39711">
        <ele>579.5</ele>
        <time>2024-12-02T13:47:50Z</time>
      </trkpt>
      <trkpt lat="43.59435" lon="6.39701">
        <ele>580</ele>
        <time>2024-12-02T13:48:05Z</time>
      </trkpt>
      <trkpt lat="43.59442" lon="6.39693">
        <ele>579.8</ele>
        <time>2024-12-02T13:48:12Z</time>
      </trkpt>
      <trkpt lat="43.59448" lon="6.3968">
        <ele>579.4</ele>
        <time>2024-12-02T13:48:22Z</time>
      </trkpt>
      <trkpt lat="43.59453" lon="6.39669">
        <ele>579.1</ele>
        <time>2024-12-02T13:48:32Z</time>
      </trkpt>
      <trkpt lat="43.59459" lon="6.39659">
        <ele>578.8</ele>
        <time>2024-12-02T13:48:41Z</time>
      </trkpt>
      <trkpt lat="43.59464" lon="6.39647">
        <ele>577.9</ele>
        <time>2024-12-02T13:48:49Z</time>
      </trkpt>
      <trkpt lat="43.59468" lon="6.39635">
        <ele>576.8</ele>
        <time>2024-12-02T13:48:58Z</time>
      </trkpt>
      <trkpt lat="43.59473" lon="6.39624">
        <ele>576</ele>
        <time>2024-12-02T13:49:07Z</time>
      </trkpt>
      <trkpt lat="43.59477" lon="6.39611">
        <ele>575</ele>
        <time>2024-12-02T13:49:17Z</time>
      </trkpt>
      <trkpt lat="43.59482" lon="6.39599">
        <ele>573.8</ele>
        <time>2024-12-02T13:49:27Z</time>
      </trkpt>
      <trkpt lat="43.59488" lon="6.39589">
        <ele>572.8</ele>
        <time>2024-12-02T13:49:36Z</time>
      </trkpt>
      <trkpt lat="43.59496" lon="6.39582">
        <ele>571.8</ele>
        <time>2024-12-02T13:49:45Z</time>
      </trkpt>
      <trkpt lat="43.59503" lon="6.39574">
        <ele>571.1</ele>
        <time>2024-12-02T13:49:56Z</time>
      </trkpt>
      <trkpt lat="43.59512" lon="6.39569">
        <ele>570.7</ele>
        <time>2024-12-02T13:50:15Z</time>
      </trkpt>
      <trkpt lat="43.59519" lon="6.39562">
        <ele>569.6</ele>
        <time>2024-12-02T13:50:27Z</time>
      </trkpt>
      <trkpt lat="43.59526" lon="6.39554">
        <ele>568</ele>
        <time>2024-12-02T13:50:38Z</time>
      </trkpt>
      <trkpt lat="43.59534" lon="6.39549">
        <ele>567.1</ele>
        <time>2024-12-02T13:53:13Z</time>
      </trkpt>
      <trkpt lat="43.59542" lon="6.39541">
        <ele>566</ele>
        <time>2024-12-02T13:53:27Z</time>
      </trkpt>
      <trkpt lat="43.59551" lon="6.39537">
        <ele>565.3</ele>
        <time>2024-12-02T13:53:40Z</time>
      </trkpt>
      <trkpt lat="43.59558" lon="6.39529">
        <ele>564.6</ele>
        <time>2024-12-02T13:53:56Z</time>
      </trkpt>
      <trkpt lat="43.59567" lon="6.39526">
        <ele>564.1</ele>
        <time>2024-12-02T13:54:06Z</time>
      </trkpt>
      <trkpt lat="43.59577" lon="6.39525">
        <ele>563.5</ele>
        <time>2024-12-02T13:54:18Z</time>
      </trkpt>
      <trkpt lat="43.59586" lon="6.39525">
        <ele>563.1</ele>
        <time>2024-12-02T13:54:32Z</time>
      </trkpt>
      <trkpt lat="43.59595" lon="6.39522">
        <ele>562.6</ele>
        <time>2024-12-02T13:54:44Z</time>
      </trkpt>
      <trkpt lat="43.59605" lon="6.39519">
        <ele>562.3</ele>
        <time>2024-12-02T13:54:56Z</time>
      </trkpt>
      <trkpt lat="43.59614" lon="6.39515">
        <ele>561.8</ele>
        <time>2024-12-02T13:55:05Z</time>
      </trkpt>
      <trkpt lat="43.59623" lon="6.39513">
        <ele>561</ele>
        <time>2024-12-02T13:55:17Z</time>
      </trkpt>
      <trkpt lat="43.59632" lon="6.39516">
        <ele>560</ele>
        <time>2024-12-02T13:55:29Z</time>
      </trkpt>
      <trkpt lat="43.59641" lon="6.39519">
        <ele>559.1</ele>
        <time>2024-12-02T13:55:39Z</time>
      </trkpt>
      <trkpt lat="43.5965" lon="6.39521">
        <ele>558.7</ele>
        <time>2024-12-02T13:55:53Z</time>
      </trkpt>
      <trkpt lat="43.59659" lon="6.39523">
        <ele>557.9</ele>
        <time>2024-12-02T13:56:07Z</time>
      </trkpt>
      <trkpt lat="43.59669" lon="6.39522">
        <ele>556.9</ele>
        <time>2024-12-02T13:56:24Z</time>
      </trkpt>
      <trkpt lat="43.59678" lon="6.39523">
        <ele>555.9</ele>
        <time>2024-12-02T13:56:34Z</time>
      </trkpt>
      <trkpt lat="43.59687" lon="6.39519">
        <ele>555.4</ele>
        <time>2024-12-02T13:56:45Z</time>
      </trkpt>
      <trkpt lat="43.59694" lon="6.39511">
        <ele>556.1</ele>
        <time>2024-12-02T13:56:59Z</time>
      </trkpt>
      <trkpt lat="43.59702" lon="6.39504">
        <ele>556.6</ele>
        <time>2024-12-02T13:57:11Z</time>
      </trkpt>
      <trkpt lat="43.59712" lon="6.39501">
        <ele>556.1</ele>
        <time>2024-12-02T13:57:21Z</time>
      </trkpt>
      <trkpt lat="43.5972" lon="6.39496">
        <ele>555.2</ele>
        <time>2024-12-02T13:57:34Z</time>
      </trkpt>
      <trkpt lat="43.59729" lon="6.39491">
        <ele>554.5</ele>
        <time>2024-12-02T13:57:44Z</time>
      </trkpt>
      <trkpt lat="43.59738" lon="6.39487">
        <ele>553.9</ele>
        <time>2024-12-02T13:57:55Z</time>
      </trkpt>
      <trkpt lat="43.59746" lon="6.39481">
        <ele>553.2</ele>
        <time>2024-12-02T13:58:06Z</time>
      </trkpt>
      <trkpt lat="43.59753" lon="6.39472">
        <ele>553</ele>
        <time>2024-12-02T13:58:18Z</time>
      </trkpt>
      <trkpt lat="43.5976" lon="6.39465">
        <ele>552.8</ele>
        <time>2024-12-02T13:58:29Z</time>
      </trkpt>
      <trkpt lat="43.59768" lon="6.39458">
        <ele>552.4</ele>
        <time>2024-12-02T13:58:40Z</time>
      </trkpt>
      <trkpt lat="43.59776" lon="6.39452">
        <ele>551.9</ele>
        <time>2024-12-02T13:58:49Z</time>
      </trkpt>
      <trkpt lat="43.59786" lon="6.39446">
        <ele>551.3</ele>
        <time>2024-12-02T13:59:01Z</time>
      </trkpt>
      <trkpt lat="43.59794" lon="6.39441">
        <ele>550.9</ele>
        <time>2024-12-02T13:59:10Z</time>
      </trkpt>
      <trkpt lat="43.59803" lon="6.39436">
        <ele>550.3</ele>
        <time>2024-12-02T13:59:20Z</time>
      </trkpt>
      <trkpt lat="43.59812" lon="6.3943">
        <ele>549.6</ele>
        <time>2024-12-02T13:59:31Z</time>
      </trkpt>
      <trkpt lat="43.59819" lon="6.39422">
        <ele>548.2</ele>
        <time>2024-12-02T14:00:42Z</time>
      </trkpt>
      <trkpt lat="43.59829" lon="6.39421">
        <ele>548.6</ele>
        <time>2024-12-02T14:02:18Z</time>
      </trkpt>
      <trkpt lat="43.59837" lon="6.39416">
        <ele>547.6</ele>
        <time>2024-12-02T14:02:30Z</time>
      </trkpt>
      <trkpt lat="43.59846" lon="6.3941">
        <ele>546.4</ele>
        <time>2024-12-02T14:02:42Z</time>
      </trkpt>
      <trkpt lat="43.59853" lon="6.39402">
        <ele>545.1</ele>
        <time>2024-12-02T14:03:01Z</time>
      </trkpt>
      <trkpt lat="43.5986" lon="6.39393">
        <ele>544.4</ele>
        <time>2024-12-02T14:03:18Z</time>
      </trkpt>
      <trkpt lat="43.59867" lon="6.39384">
        <ele>543.3</ele>
        <time>2024-12-02T14:03:35Z</time>
      </trkpt>
      <trkpt lat="43.59873" lon="6.39374">
        <ele>541.9</ele>
        <time>2024-12-02T14:03:47Z</time>
      </trkpt>
      <trkpt lat="43.5988" lon="6.39366">
        <ele>540.6</ele>
        <time>2024-12-02T14:04:09Z</time>
      </trkpt>
      <trkpt lat="43.59886" lon="6.39355">
        <ele>539.9</ele>
        <time>2024-12-02T14:04:22Z</time>
      </trkpt>
      <trkpt lat="43.59893" lon="6.39347">
        <ele>538.1</ele>
        <time>2024-12-02T14:04:39Z</time>
      </trkpt>
      <trkpt lat="43.59899" lon="6.39338">
        <ele>536.5</ele>
        <time>2024-12-02T14:04:55Z</time>
      </trkpt>
      <trkpt lat="43.59904" lon="6.39328">
        <ele>535</ele>
        <time>2024-12-02T14:05:20Z</time>
      </trkpt>
      <trkpt lat="43.59911" lon="6.39318">
        <ele>533.6</ele>
        <time>2024-12-02T14:05:34Z</time>
      </trkpt>
      <trkpt lat="43.59913" lon="6.39306">
        <ele>532.5</ele>
        <time>2024-12-02T14:05:46Z</time>
      </trkpt>
      <trkpt lat="43.59917" lon="6.39294">
        <ele>531.3</ele>
        <time>2024-12-02T14:06:04Z</time>
      </trkpt>
      <trkpt lat="43.5992" lon="6.39283">
        <ele>530.9</ele>
        <time>2024-12-02T14:06:37Z</time>
      </trkpt>
      <trkpt lat="43.59926" lon="6.39272">
        <ele>531.5</ele>
        <time>2024-12-02T14:06:46Z</time>
      </trkpt>
      <trkpt lat="43.59931" lon="6.39262">
        <ele>530.9</ele>
        <time>2024-12-02T14:06:55Z</time>
      </trkpt>
      <trkpt lat="43.59935" lon="6.3925">
        <ele>531.3</ele>
        <time>2024-12-02T14:07:07Z</time>
      </trkpt>
      <trkpt lat="43.59936" lon="6.39237">
        <ele>531.2</ele>
        <time>2024-12-02T14:07:22Z</time>
      </trkpt>
      <trkpt lat="43.59936" lon="6.39224">
        <ele>531.6</ele>
        <time>2024-12-02T14:09:30Z</time>
      </trkpt>
      <trkpt lat="43.5994" lon="6.39213">
        <ele>532.4</ele>
        <time>2024-12-02T14:09:40Z</time>
      </trkpt>
      <trkpt lat="43.59944" lon="6.39201">
        <ele>532.1</ele>
        <time>2024-12-02T14:09:56Z</time>
      </trkpt>
      <trkpt lat="43.59947" lon="6.39188">
        <ele>531.7</ele>
        <time>2024-12-02T14:10:08Z</time>
      </trkpt>
      <trkpt lat="43.59953" lon="6.39178">
        <ele>532.3</ele>
        <time>2024-12-02T14:10:45Z</time>
      </trkpt>
      <trkpt lat="43.59958" lon="6.39167">
        <ele>532.2</ele>
        <time>2024-12-02T14:11:01Z</time>
      </trkpt>
      <trkpt lat="43.59966" lon="6.39159">
        <ele>533.2</ele>
        <time>2024-12-02T14:11:12Z</time>
      </trkpt>
      <trkpt lat="43.59975" lon="6.39157">
        <ele>533.4</ele>
        <time>2024-12-02T14:11:25Z</time>
      </trkpt>
      <trkpt lat="43.59984" lon="6.39162">
        <ele>533.4</ele>
        <time>2024-12-02T14:11:36Z</time>
      </trkpt>
      <trkpt lat="43.59994" lon="6.39163">
        <ele>533.2</ele>
        <time>2024-12-02T14:11:46Z</time>
      </trkpt>
      <trkpt lat="43.60003" lon="6.39161">
        <ele>532.8</ele>
        <time>2024-12-02T14:11:55Z</time>
      </trkpt>
      <trkpt lat="43.60011" lon="6.39158">
        <ele>533.3</ele>
        <time>2024-12-02T14:12:06Z</time>
      </trkpt>
      <trkpt lat="43.6002" lon="6.39153">
        <ele>533.4</ele>
        <time>2024-12-02T14:12:16Z</time>
      </trkpt>
      <trkpt lat="43.60028" lon="6.39146">
        <ele>533.6</ele>
        <time>2024-12-02T14:12:26Z</time>
      </trkpt>
      <trkpt lat="43.60037" lon="6.39143">
        <ele>533.5</ele>
        <time>2024-12-02T14:12:35Z</time>
      </trkpt>
      <trkpt lat="43.60047" lon="6.39143">
        <ele>533.2</ele>
        <time>2024-12-02T14:12:44Z</time>
      </trkpt>
      <trkpt lat="43.60056" lon="6.39142">
        <ele>533.3</ele>
        <time>2024-12-02T14:12:53Z</time>
      </trkpt>
      <trkpt lat="43.60062" lon="6.39132">
        <ele>533</ele>
        <time>2024-12-02T14:13:04Z</time>
      </trkpt>
      <trkpt lat="43.60066" lon="6.3912">
        <ele>533</ele>
        <time>2024-12-02T14:13:17Z</time>
      </trkpt>
      <trkpt lat="43.60074" lon="6.39113">
        <ele>532.3</ele>
        <time>2024-12-02T14:13:42Z</time>
      </trkpt>
      <trkpt lat="43.60082" lon="6.39118">
        <ele>532.1</ele>
        <time>2024-12-02T14:14:19Z</time>
      </trkpt>
      <trkpt lat="43.60092" lon="6.39117">
        <ele>531.4</ele>
        <time>2024-12-02T14:14:27Z</time>
      </trkpt>
      <trkpt lat="43.60101" lon="6.39114">
        <ele>531.4</ele>
        <time>2024-12-02T14:14:37Z</time>
      </trkpt>
      <trkpt lat="43.6011" lon="6.39114">
        <ele>530.6</ele>
        <time>2024-12-02T14:14:46Z</time>
      </trkpt>
      <trkpt lat="43.6012" lon="6.3911">
        <ele>530.5</ele>
        <time>2024-12-02T14:14:56Z</time>
      </trkpt>
      <trkpt lat="43.60129" lon="6.39105">
        <ele>529.6</ele>
        <time>2024-12-02T14:15:06Z</time>
      </trkpt>
      <trkpt lat="43.60137" lon="6.39102">
        <ele>529.7</ele>
        <time>2024-12-02T14:15:15Z</time>
      </trkpt>
      <trkpt lat="43.60147" lon="6.391">
        <ele>528.8</ele>
        <time>2024-12-02T14:15:28Z</time>
      </trkpt>
      <trkpt lat="43.60156" lon="6.39097">
        <ele>528.2</ele>
        <time>2024-12-02T14:15:43Z</time>
      </trkpt>
      <trkpt lat="43.60163" lon="6.39104">
        <ele>526.8</ele>
        <time>2024-12-02T14:16:00Z</time>
      </trkpt>
      <trkpt lat="43.60172" lon="6.39106">
        <ele>525.6</ele>
        <time>2024-12-02T14:16:22Z</time>
      </trkpt>
      <trkpt lat="43.60181" lon="6.39107">
        <ele>525.6</ele>
        <time>2024-12-02T14:16:45Z</time>
      </trkpt>
      <trkpt lat="43.60191" lon="6.39105">
        <ele>525.9</ele>
        <time>2024-12-02T14:17:01Z</time>
      </trkpt>
      <trkpt lat="43.60199" lon="6.39102">
        <ele>525.7</ele>
        <time>2024-12-02T14:17:14Z</time>
      </trkpt>
      <trkpt lat="43.60208" lon="6.39104">
        <ele>526</ele>
        <time>2024-12-02T14:17:25Z</time>
      </trkpt>
      <trkpt lat="43.60218" lon="6.39108">
        <ele>526.4</ele>
        <time>2024-12-02T14:17:41Z</time>
      </trkpt>
      <trkpt lat="43.60227" lon="6.39107">
        <ele>526.4</ele>
        <time>2024-12-02T14:17:50Z</time>
      </trkpt>
      <trkpt lat="43.60236" lon="6.3911">
        <ele>526.3</ele>
        <time>2024-12-02T14:18:02Z</time>
      </trkpt>
      <trkpt lat="43.60246" lon="6.3911">
        <ele>525.8</ele>
        <time>2024-12-02T14:18:13Z</time>
      </trkpt>
      <trkpt lat="43.60255" lon="6.39109">
        <ele>525.5</ele>
        <time>2024-12-02T14:18:22Z</time>
      </trkpt>
      <trkpt lat="43.60265" lon="6.39108">
        <ele>525.1</ele>
        <time>2024-12-02T14:18:34Z</time>
      </trkpt>
      <trkpt lat="43.60273" lon="6.39104">
        <ele>524.2</ele>
        <time>2024-12-02T14:18:45Z</time>
      </trkpt>
      <trkpt lat="43.6028" lon="6.39095">
        <ele>522.8</ele>
        <time>2024-12-02T14:19:01Z</time>
      </trkpt>
      <trkpt lat="43.60286" lon="6.39085">
        <ele>521.8</ele>
        <time>2024-12-02T14:19:15Z</time>
      </trkpt>
      <trkpt lat="43.60293" lon="6.39077">
        <ele>519.2</ele>
        <time>2024-12-02T14:19:48Z</time>
      </trkpt>
      <trkpt lat="43.60302" lon="6.39074">
        <ele>516.8</ele>
        <time>2024-12-02T14:20:23Z</time>
      </trkpt>
      <trkpt lat="43.60311" lon="6.39067">
        <ele>515</ele>
        <time>2024-12-02T14:20:36Z</time>
      </trkpt>
      <trkpt lat="43.60319" lon="6.39061">
        <ele>513.3</ele>
        <time>2024-12-02T14:20:49Z</time>
      </trkpt>
      <trkpt lat="43.60328" lon="6.39057">
        <ele>511.9</ele>
        <time>2024-12-02T14:21:01Z</time>
      </trkpt>
      <trkpt lat="43.60326" lon="6.39044">
        <ele>510.9</ele>
        <time>2024-12-02T14:21:19Z</time>
      </trkpt>
      <trkpt lat="43.60317" lon="6.39044">
        <ele>510.5</ele>
        <time>2024-12-02T14:21:32Z</time>
      </trkpt>
      <trkpt lat="43.60308" lon="6.39045">
        <ele>511.9</ele>
        <time>2024-12-02T14:21:58Z</time>
      </trkpt>
      <trkpt lat="43.603" lon="6.39039">
        <ele>512.4</ele>
        <time>2024-12-02T14:23:11Z</time>
      </trkpt>
      <trkpt lat="43.60292" lon="6.39033">
        <ele>513.2</ele>
        <time>2024-12-02T14:23:19Z</time>
      </trkpt>
      <trkpt lat="43.60283" lon="6.39026">
        <ele>514.5</ele>
        <time>2024-12-02T14:23:31Z</time>
      </trkpt>
      <trkpt lat="43.60274" lon="6.39023">
        <ele>515.4</ele>
        <time>2024-12-02T14:23:46Z</time>
      </trkpt>
      <trkpt lat="43.60264" lon="6.39022">
        <ele>515.9</ele>
        <time>2024-12-02T14:23:54Z</time>
      </trkpt>
      <trkpt lat="43.60255" lon="6.39021">
        <ele>516.3</ele>
        <time>2024-12-02T14:24:02Z</time>
      </trkpt>
      <trkpt lat="43.60245" lon="6.39018">
        <ele>516.8</ele>
        <time>2024-12-02T14:24:10Z</time>
      </trkpt>
      <trkpt lat="43.60235" lon="6.39017">
        <ele>517.6</ele>
        <time>2024-12-02T14:24:19Z</time>
      </trkpt>
      <trkpt lat="43.60226" lon="6.39011">
        <ele>518.6</ele>
        <time>2024-12-02T14:24:29Z</time>
      </trkpt>
      <trkpt lat="43.60216" lon="6.39007">
        <ele>519.2</ele>
        <time>2024-12-02T14:24:44Z</time>
      </trkpt>
      <trkpt lat="43.60207" lon="6.39001">
        <ele>519.5</ele>
        <time>2024-12-02T14:24:52Z</time>
      </trkpt>
      <trkpt lat="43.60199" lon="6.38995">
        <ele>520</ele>
        <time>2024-12-02T14:25:00Z</time>
      </trkpt>
      <trkpt lat="43.6019" lon="6.38989">
        <ele>521.1</ele>
        <time>2024-12-02T14:26:58Z</time>
      </trkpt>
      <trkpt lat="43.60184" lon="6.3898">
        <ele>521.8</ele>
        <time>2024-12-02T14:27:53Z</time>
      </trkpt>
      <trkpt lat="43.60185" lon="6.38967">
        <ele>521.9</ele>
        <time>2024-12-02T14:28:02Z</time>
      </trkpt>
      <trkpt lat="43.60186" lon="6.38954">
        <ele>522.5</ele>
        <time>2024-12-02T14:28:13Z</time>
      </trkpt>
      <trkpt lat="43.6019" lon="6.38941">
        <ele>522.8</ele>
        <time>2024-12-02T14:28:22Z</time>
      </trkpt>
      <trkpt lat="43.60195" lon="6.3893">
        <ele>523.2</ele>
        <time>2024-12-02T14:28:36Z</time>
      </trkpt>
      <trkpt lat="43.60189" lon="6.3892">
        <ele>524.7</ele>
        <time>2024-12-02T14:28:54Z</time>
      </trkpt>
      <trkpt lat="43.60191" lon="6.38908">
        <ele>525.5</ele>
        <time>2024-12-02T14:29:55Z</time>
      </trkpt>
      <trkpt lat="43.60196" lon="6.38897">
        <ele>526.4</ele>
        <time>2024-12-02T14:30:05Z</time>
      </trkpt>
      <trkpt lat="43.60202" lon="6.38888">
        <ele>527.4</ele>
        <time>2024-12-02T14:30:16Z</time>
      </trkpt>
      <trkpt lat="43.60203" lon="6.38874">
        <ele>528.1</ele>
        <time>2024-12-02T14:30:27Z</time>
      </trkpt>
      <trkpt lat="43.60201" lon="6.38862">
        <ele>530.4</ele>
        <time>2024-12-02T14:31:17Z</time>
      </trkpt>
      <trkpt lat="43.60209" lon="6.38854">
        <ele>530.6</ele>
        <time>2024-12-02T14:31:32Z</time>
      </trkpt>
      <trkpt lat="43.60218" lon="6.38851">
        <ele>530.8</ele>
        <time>2024-12-02T14:32:16Z</time>
      </trkpt>
      <trkpt lat="43.60223" lon="6.3884">
        <ele>531.2</ele>
        <time>2024-12-02T14:32:29Z</time>
      </trkpt>
      <trkpt lat="43.60228" lon="6.3883">
        <ele>531.4</ele>
        <time>2024-12-02T14:32:47Z</time>
      </trkpt>
      <trkpt lat="43.60233" lon="6.38819">
        <ele>530.3</ele>
        <time>2024-12-02T14:33:03Z</time>
      </trkpt>
      <trkpt lat="43.60239" lon="6.38809">
        <ele>530.2</ele>
        <time>2024-12-02T14:33:19Z</time>
      </trkpt>
      <trkpt lat="43.60244" lon="6.38798">
        <ele>529.9</ele>
        <time>2024-12-02T14:33:33Z</time>
      </trkpt>
      <trkpt lat="43.60249" lon="6.38787">
        <ele>529.6</ele>
        <time>2024-12-02T14:33:44Z</time>
      </trkpt>
      <trkpt lat="43.60254" lon="6.38776">
        <ele>529.7</ele>
        <time>2024-12-02T14:33:56Z</time>
      </trkpt>
      <trkpt lat="43.60259" lon="6.38765">
        <ele>529.6</ele>
        <time>2024-12-02T14:34:07Z</time>
      </trkpt>
      <trkpt lat="43.60264" lon="6.38753">
        <ele>529.5</ele>
        <time>2024-12-02T14:34:29Z</time>
      </trkpt>
      <trkpt lat="43.60264" lon="6.3874">
        <ele>529.6</ele>
        <time>2024-12-02T14:34:40Z</time>
      </trkpt>
      <trkpt lat="43.60265" lon="6.38726">
        <ele>529.8</ele>
        <time>2024-12-02T14:34:51Z</time>
      </trkpt>
      <trkpt lat="43.60266" lon="6.38714">
        <ele>529.9</ele>
        <time>2024-12-02T14:35:02Z</time>
      </trkpt>
      <trkpt lat="43.60264" lon="6.38701">
        <ele>530.3</ele>
        <time>2024-12-02T14:35:11Z</time>
      </trkpt>
      <trkpt lat="43.60262" lon="6.38688">
        <ele>531.2</ele>
        <time>2024-12-02T14:35:22Z</time>
      </trkpt>
      <trkpt lat="43.60257" lon="6.38678">
        <ele>532.1</ele>
        <time>2024-12-02T14:35:35Z</time>
      </trkpt>
      <trkpt lat="43.60252" lon="6.38666">
        <ele>533</ele>
        <time>2024-12-02T14:35:47Z</time>
      </trkpt>
      <trkpt lat="43.60252" lon="6.38653">
        <ele>534.2</ele>
        <time>2024-12-02T14:36:15Z</time>
      </trkpt>
      <trkpt lat="43.60252" lon="6.38641">
        <ele>535.4</ele>
        <time>2024-12-02T14:36:27Z</time>
      </trkpt>
      <trkpt lat="43.60249" lon="6.38629">
        <ele>536.8</ele>
        <time>2024-12-02T14:36:39Z</time>
      </trkpt>
      <trkpt lat="43.60246" lon="6.38617">
        <ele>538.2</ele>
        <time>2024-12-02T14:36:51Z</time>
      </trkpt>
      <trkpt lat="43.6024" lon="6.38606">
        <ele>539.4</ele>
        <time>2024-12-02T14:37:02Z</time>
      </trkpt>
      <trkpt lat="43.60237" lon="6.38594">
        <ele>540.5</ele>
        <time>2024-12-02T14:37:15Z</time>
      </trkpt>
      <trkpt lat="43.60234" lon="6.38581">
        <ele>541.6</ele>
        <time>2024-12-02T14:37:27Z</time>
      </trkpt>
      <trkpt lat="43.60231" lon="6.38569">
        <ele>542.7</ele>
        <time>2024-12-02T14:37:39Z</time>
      </trkpt>
      <trkpt lat="43.60227" lon="6.38558">
        <ele>544.4</ele>
        <time>2024-12-02T14:38:07Z</time>
      </trkpt>
      <trkpt lat="43.60221" lon="6.38548">
        <ele>545.3</ele>
        <time>2024-12-02T14:38:19Z</time>
      </trkpt>
      <trkpt lat="43.60214" lon="6.38539">
        <ele>545.9</ele>
        <time>2024-12-02T14:38:29Z</time>
      </trkpt>
      <trkpt lat="43.60208" lon="6.38528">
        <ele>547.1</ele>
        <time>2024-12-02T14:38:40Z</time>
      </trkpt>
      <trkpt lat="43.60205" lon="6.38517">
        <ele>548</ele>
        <time>2024-12-02T14:38:49Z</time>
      </trkpt>
      <trkpt lat="43.60202" lon="6.38505">
        <ele>549.1</ele>
        <time>2024-12-02T14:39:01Z</time>
      </trkpt>
      <trkpt lat="43.60198" lon="6.38493">
        <ele>549.7</ele>
        <time>2024-12-02T14:39:13Z</time>
      </trkpt>
      <trkpt lat="43.60193" lon="6.38482">
        <ele>550.5</ele>
        <time>2024-12-02T14:39:24Z</time>
      </trkpt>
      <trkpt lat="43.60189" lon="6.3847">
        <ele>552</ele>
        <time>2024-12-02T14:39:37Z</time>
      </trkpt>
      <trkpt lat="43.60182" lon="6.38461">
        <ele>553.5</ele>
        <time>2024-12-02T14:39:54Z</time>
      </trkpt>
      <trkpt lat="43.60175" lon="6.38452">
        <ele>554.2</ele>
        <time>2024-12-02T14:40:06Z</time>
      </trkpt>
      <trkpt lat="43.60167" lon="6.38445">
        <ele>555</ele>
        <time>2024-12-02T14:40:17Z</time>
      </trkpt>
      <trkpt lat="43.6016" lon="6.38435">
        <ele>555.6</ele>
        <time>2024-12-02T14:40:27Z</time>
      </trkpt>
      <trkpt lat="43.60153" lon="6.38427">
        <ele>556.2</ele>
        <time>2024-12-02T14:40:40Z</time>
      </trkpt>
      <trkpt lat="43.60146" lon="6.38418">
        <ele>556.7</ele>
        <time>2024-12-02T14:40:49Z</time>
      </trkpt>
      <trkpt lat="43.6014" lon="6.38409">
        <ele>557</ele>
        <time>2024-12-02T14:40:59Z</time>
      </trkpt>
      <trkpt lat="43.60137" lon="6.38397">
        <ele>558.6</ele>
        <time>2024-12-02T14:41:15Z</time>
      </trkpt>
      <trkpt lat="43.60128" lon="6.38392">
        <ele>560</ele>
        <time>2024-12-02T14:41:26Z</time>
      </trkpt>
      <trkpt lat="43.60125" lon="6.3838">
        <ele>559.9</ele>
        <time>2024-12-02T14:43:26Z</time>
      </trkpt>
      <trkpt lat="43.60118" lon="6.3837">
        <ele>560.5</ele>
        <time>2024-12-02T14:43:36Z</time>
      </trkpt>
      <trkpt lat="43.60111" lon="6.38362">
        <ele>560.8</ele>
        <time>2024-12-02T14:44:01Z</time>
      </trkpt>
      <trkpt lat="43.60107" lon="6.3835">
        <ele>561</ele>
        <time>2024-12-02T14:44:12Z</time>
      </trkpt>
      <trkpt lat="43.60103" lon="6.38337">
        <ele>561.6</ele>
        <time>2024-12-02T14:44:21Z</time>
      </trkpt>
      <trkpt lat="43.60103" lon="6.38324">
        <ele>562.1</ele>
        <time>2024-12-02T14:44:30Z</time>
      </trkpt>
      <trkpt lat="43.60099" lon="6.38312">
        <ele>562.7</ele>
        <time>2024-12-02T14:44:38Z</time>
      </trkpt>
      <trkpt lat="43.60092" lon="6.38303">
        <ele>562.9</ele>
        <time>2024-12-02T14:44:46Z</time>
      </trkpt>
      <trkpt lat="43.60088" lon="6.38291">
        <ele>563.3</ele>
        <time>2024-12-02T14:44:55Z</time>
      </trkpt>
      <trkpt lat="43.60083" lon="6.3828">
        <ele>564</ele>
        <time>2024-12-02T14:45:08Z</time>
      </trkpt>
      <trkpt lat="43.60078" lon="6.3827">
        <ele>564.2</ele>
        <time>2024-12-02T14:45:16Z</time>
      </trkpt>
      <trkpt lat="43.60072" lon="6.3826">
        <ele>564.4</ele>
        <time>2024-12-02T14:45:26Z</time>
      </trkpt>
      <trkpt lat="43.60065" lon="6.3825">
        <ele>564.6</ele>
        <time>2024-12-02T14:45:34Z</time>
      </trkpt>
      <trkpt lat="43.60059" lon="6.3824">
        <ele>564.6</ele>
        <time>2024-12-02T14:45:42Z</time>
      </trkpt>
      <trkpt lat="43.60051" lon="6.38232">
        <ele>564.9</ele>
        <time>2024-12-02T14:45:50Z</time>
      </trkpt>
      <trkpt lat="43.60044" lon="6.38223">
        <ele>565.4</ele>
        <time>2024-12-02T14:45:58Z</time>
      </trkpt>
      <trkpt lat="43.60037" lon="6.38214">
        <ele>565.7</ele>
        <time>2024-12-02T14:46:07Z</time>
      </trkpt>
      <trkpt lat="43.60028" lon="6.3821">
        <ele>566.1</ele>
        <time>2024-12-02T14:46:18Z</time>
      </trkpt>
      <trkpt lat="43.60019" lon="6.38205">
        <ele>567</ele>
        <time>2024-12-02T14:46:29Z</time>
      </trkpt>
      <trkpt lat="43.6001" lon="6.38201">
        <ele>567.8</ele>
        <time>2024-12-02T14:46:39Z</time>
      </trkpt>
      <trkpt lat="43.60002" lon="6.38193">
        <ele>569.3</ele>
        <time>2024-12-02T14:46:50Z</time>
      </trkpt>
      <trkpt lat="43.59995" lon="6.38186">
        <ele>570</ele>
        <time>2024-12-02T14:46:59Z</time>
      </trkpt>
      <trkpt lat="43.59987" lon="6.38179">
        <ele>570.9</ele>
        <time>2024-12-02T14:47:10Z</time>
      </trkpt>
      <trkpt lat="43.5998" lon="6.38171">
        <ele>571.9</ele>
        <time>2024-12-02T14:47:42Z</time>
      </trkpt>
      <trkpt lat="43.5997" lon="6.38168">
        <ele>572.7</ele>
        <time>2024-12-02T14:47:54Z</time>
      </trkpt>
      <trkpt lat="43.59961" lon="6.38162">
        <ele>574</ele>
        <time>2024-12-02T14:48:07Z</time>
      </trkpt>
      <trkpt lat="43.59953" lon="6.38156">
        <ele>575</ele>
        <time>2024-12-02T14:48:20Z</time>
      </trkpt>
      <trkpt lat="43.59945" lon="6.38149">
        <ele>576.3</ele>
        <time>2024-12-02T14:48:54Z</time>
      </trkpt>
      <trkpt lat="43.59937" lon="6.38143">
        <ele>578.3</ele>
        <time>2024-12-02T14:49:19Z</time>
      </trkpt>
      <trkpt lat="43.5993" lon="6.38135">
        <ele>579.4</ele>
        <time>2024-12-02T14:49:52Z</time>
      </trkpt>
      <trkpt lat="43.5992" lon="6.3813">
        <ele>580.7</ele>
        <time>2024-12-02T14:50:04Z</time>
      </trkpt>
      <trkpt lat="43.59911" lon="6.38126">
        <ele>582</ele>
        <time>2024-12-02T14:50:17Z</time>
      </trkpt>
      <trkpt lat="43.59903" lon="6.38119">
        <ele>583.6</ele>
        <time>2024-12-02T14:50:42Z</time>
      </trkpt>
      <trkpt lat="43.59894" lon="6.38116">
        <ele>584.2</ele>
        <time>2024-12-02T14:50:57Z</time>
      </trkpt>
      <trkpt lat="43.59885" lon="6.38113">
        <ele>584.7</ele>
        <time>2024-12-02T14:51:05Z</time>
      </trkpt>
      <trkpt lat="43.59876" lon="6.38109">
        <ele>585.6</ele>
        <time>2024-12-02T14:51:25Z</time>
      </trkpt>
      <trkpt lat="43.59868" lon="6.38102">
        <ele>586.5</ele>
        <time>2024-12-02T14:51:35Z</time>
      </trkpt>
      <trkpt lat="43.59858" lon="6.38097">
        <ele>587.1</ele>
        <time>2024-12-02T14:51:45Z</time>
      </trkpt>
      <trkpt lat="43.59849" lon="6.38091">
        <ele>587.9</ele>
        <time>2024-12-02T14:51:56Z</time>
      </trkpt>
      <trkpt lat="43.59843" lon="6.38081">
        <ele>587.4</ele>
        <time>2024-12-02T14:52:12Z</time>
      </trkpt>
      <trkpt lat="43.59839" lon="6.3807">
        <ele>587</ele>
        <time>2024-12-02T14:52:22Z</time>
      </trkpt>
      <trkpt lat="43.59833" lon="6.38059">
        <ele>586.7</ele>
        <time>2024-12-02T14:52:33Z</time>
      </trkpt>
      <trkpt lat="43.59828" lon="6.38048">
        <ele>586.6</ele>
        <time>2024-12-02T14:52:43Z</time>
      </trkpt>
      <trkpt lat="43.59819" lon="6.3804">
        <ele>586.8</ele>
        <time>2024-12-02T14:53:01Z</time>
      </trkpt>
      <trkpt lat="43.5981" lon="6.38037">
        <ele>586.6</ele>
        <time>2024-12-02T14:53:10Z</time>
      </trkpt>
      <trkpt lat="43.59801" lon="6.38037">
        <ele>586.2</ele>
        <time>2024-12-02T14:53:24Z</time>
      </trkpt>
      <trkpt lat="43.59791" lon="6.38038">
        <ele>585.8</ele>
        <time>2024-12-02T14:53:39Z</time>
      </trkpt>
      <trkpt lat="43.59782" lon="6.38039">
        <ele>585</ele>
        <time>2024-12-02T14:53:49Z</time>
      </trkpt>
      <trkpt lat="43.59772" lon="6.38041">
        <ele>583.2</ele>
        <time>2024-12-02T14:54:16Z</time>
      </trkpt>
      <trkpt lat="43.59763" lon="6.38044">
        <ele>582.4</ele>
        <time>2024-12-02T14:54:28Z</time>
      </trkpt>
      <trkpt lat="43.59754" lon="6.38049">
        <ele>581.8</ele>
        <time>2024-12-02T14:54:37Z</time>
      </trkpt>
      <trkpt lat="43.59747" lon="6.38057">
        <ele>581.7</ele>
        <time>2024-12-02T14:55:17Z</time>
      </trkpt>
      <trkpt lat="43.59741" lon="6.38067">
        <ele>582.1</ele>
        <time>2024-12-02T14:57:33Z</time>
      </trkpt>
      <trkpt lat="43.59734" lon="6.38074">
        <ele>582.3</ele>
        <time>2024-12-02T14:58:11Z</time>
      </trkpt>
      <trkpt lat="43.59727" lon="6.38083">
        <ele>582.4</ele>
        <time>2024-12-02T14:58:17Z</time>
      </trkpt>
      <trkpt lat="43.5972" lon="6.38092">
        <ele>582.6</ele>
        <time>2024-12-02T14:58:23Z</time>
      </trkpt>
      <trkpt lat="43.59712" lon="6.38102">
        <ele>582.8</ele>
        <time>2024-12-02T14:58:30Z</time>
      </trkpt>
      <trkpt lat="43.59705" lon="6.38111">
        <ele>583.1</ele>
        <time>2024-12-02T14:58:37Z</time>
      </trkpt>
      <trkpt lat="43.59699" lon="6.38121">
        <ele>583.4</ele>
        <time>2024-12-02T14:58:44Z</time>
      </trkpt>
      <trkpt lat="43.59692" lon="6.38131">
        <ele>583.7</ele>
        <time>2024-12-02T14:58:50Z</time>
      </trkpt>
      <trkpt lat="43.59684" lon="6.3814">
        <ele>583.9</ele>
        <time>2024-12-02T14:58:56Z</time>
      </trkpt>
      <trkpt lat="43.59677" lon="6.38149">
        <ele>584.1</ele>
        <time>2024-12-02T14:59:03Z</time>
      </trkpt>
      <trkpt lat="43.59669" lon="6.38158">
        <ele>584.3</ele>
        <time>2024-12-02T14:59:10Z</time>
      </trkpt>
      <trkpt lat="43.59661" lon="6.38167">
        <ele>584.5</ele>
        <time>2024-12-02T14:59:17Z</time>
      </trkpt>
      <trkpt lat="43.59654" lon="6.38175">
        <ele>584.5</ele>
        <time>2024-12-02T14:59:24Z</time>
      </trkpt>
      <trkpt lat="43.59646" lon="6.38182">
        <ele>584.9</ele>
        <time>2024-12-02T14:59:31Z</time>
      </trkpt>
      <trkpt lat="43.59637" lon="6.38188">
        <ele>584.9</ele>
        <time>2024-12-02T14:59:38Z</time>
      </trkpt>
      <trkpt lat="43.5963" lon="6.38196">
        <ele>585.2</ele>
        <time>2024-12-02T14:59:45Z</time>
      </trkpt>
      <trkpt lat="43.59621" lon="6.38204">
        <ele>585.2</ele>
        <time>2024-12-02T14:59:53Z</time>
      </trkpt>
      <trkpt lat="43.59614" lon="6.38211">
        <ele>585.5</ele>
        <time>2024-12-02T15:00:00Z</time>
      </trkpt>
      <trkpt lat="43.59605" lon="6.38219">
        <ele>585.9</ele>
        <time>2024-12-02T15:00:08Z</time>
      </trkpt>
      <trkpt lat="43.59597" lon="6.38225">
        <ele>586</ele>
        <time>2024-12-02T15:00:15Z</time>
      </trkpt>
      <trkpt lat="43.59589" lon="6.38232">
        <ele>586.3</ele>
        <time>2024-12-02T15:00:22Z</time>
      </trkpt>
      <trkpt lat="43.59581" lon="6.3824">
        <ele>586.6</ele>
        <time>2024-12-02T15:00:29Z</time>
      </trkpt>
      <trkpt lat="43.59573" lon="6.38246">
        <ele>586</ele>
        <time>2024-12-02T15:00:36Z</time>
      </trkpt>
      <trkpt lat="43.59565" lon="6.38254">
        <ele>585.7</ele>
        <time>2024-12-02T15:00:43Z</time>
      </trkpt>
      <trkpt lat="43.59556" lon="6.38262">
        <ele>586.8</ele>
        <time>2024-12-02T15:00:51Z</time>
      </trkpt>
      <trkpt lat="43.59548" lon="6.3827">
        <ele>587.1</ele>
        <time>2024-12-02T15:00:59Z</time>
      </trkpt>
      <trkpt lat="43.5954" lon="6.38278">
        <ele>587.2</ele>
        <time>2024-12-02T15:01:06Z</time>
      </trkpt>
      <trkpt lat="43.59534" lon="6.38287">
        <ele>587.4</ele>
        <time>2024-12-02T15:01:13Z</time>
      </trkpt>
      <trkpt lat="43.59533" lon="6.38302">
        <ele>587.7</ele>
        <time>2024-12-02T15:01:20Z</time>
      </trkpt>
      <trkpt lat="43.5953" lon="6.38315">
        <ele>587.9</ele>
        <time>2024-12-02T15:01:27Z</time>
      </trkpt>
      <trkpt lat="43.59525" lon="6.38327">
        <ele>587.8</ele>
        <time>2024-12-02T15:01:35Z</time>
      </trkpt>
      <trkpt lat="43.59519" lon="6.38336">
        <ele>587.9</ele>
        <time>2024-12-02T15:01:41Z</time>
      </trkpt>
      <trkpt lat="43.59513" lon="6.38347">
        <ele>587.8</ele>
        <time>2024-12-02T15:01:48Z</time>
      </trkpt>
      <trkpt lat="43.59507" lon="6.38356">
        <ele>588.3</ele>
        <time>2024-12-02T15:01:56Z</time>
      </trkpt>
      <trkpt lat="43.595" lon="6.38367">
        <ele>588.5</ele>
        <time>2024-12-02T15:02:03Z</time>
      </trkpt>
      <trkpt lat="43.59495" lon="6.38379">
        <ele>588</ele>
        <time>2024-12-02T15:02:10Z</time>
      </trkpt>
      <trkpt lat="43.5949" lon="6.38389">
        <ele>587.9</ele>
        <time>2024-12-02T15:02:17Z</time>
      </trkpt>
      <trkpt lat="43.59484" lon="6.384">
        <ele>587.9</ele>
        <time>2024-12-02T15:02:24Z</time>
      </trkpt>
      <trkpt lat="43.59479" lon="6.38412">
        <ele>588.1</ele>
        <time>2024-12-02T15:02:31Z</time>
      </trkpt>
      <trkpt lat="43.59475" lon="6.38423">
        <ele>588.1</ele>
        <time>2024-12-02T15:02:38Z</time>
      </trkpt>
      <trkpt lat="43.5947" lon="6.38434">
        <ele>588</ele>
        <time>2024-12-02T15:02:45Z</time>
      </trkpt>
      <trkpt lat="43.59467" lon="6.38447">
        <ele>588</ele>
        <time>2024-12-02T15:02:52Z</time>
      </trkpt>
      <trkpt lat="43.59466" lon="6.3846">
        <ele>588.1</ele>
        <time>2024-12-02T15:02:59Z</time>
      </trkpt>
      <trkpt lat="43.59464" lon="6.38474">
        <ele>588</ele>
        <time>2024-12-02T15:03:07Z</time>
      </trkpt>
      <trkpt lat="43.59462" lon="6.38487">
        <ele>588</ele>
        <time>2024-12-02T15:03:14Z</time>
      </trkpt>
      <trkpt lat="43.59461" lon="6.385">
        <ele>588.2</ele>
        <time>2024-12-02T15:03:22Z</time>
      </trkpt>
      <trkpt lat="43.59459" lon="6.38513">
        <ele>588.3</ele>
        <time>2024-12-02T15:03:30Z</time>
      </trkpt>
      <trkpt lat="43.59455" lon="6.38524">
        <ele>588.3</ele>
        <time>2024-12-02T15:03:37Z</time>
      </trkpt>
      <trkpt lat="43.59451" lon="6.38536">
        <ele>588.1</ele>
        <time>2024-12-02T15:03:45Z</time>
      </trkpt>
      <trkpt lat="43.59446" lon="6.38547">
        <ele>588.3</ele>
        <time>2024-12-02T15:03:53Z</time>
      </trkpt>
      <trkpt lat="43.59441" lon="6.38558">
        <ele>588.3</ele>
        <time>2024-12-02T15:04:01Z</time>
      </trkpt>
      <trkpt lat="43.59436" lon="6.3857">
        <ele>588.3</ele>
        <time>2024-12-02T15:04:09Z</time>
      </trkpt>
      <trkpt lat="43.59432" lon="6.38581">
        <ele>588.3</ele>
        <time>2024-12-02T15:04:18Z</time>
      </trkpt>
      <trkpt lat="43.59427" lon="6.38592">
        <ele>588.4</ele>
        <time>2024-12-02T15:04:25Z</time>
      </trkpt>
      <trkpt lat="43.59424" lon="6.38604">
        <ele>588.6</ele>
        <time>2024-12-02T15:04:33Z</time>
      </trkpt>
      <trkpt lat="43.59419" lon="6.38617">
        <ele>588.7</ele>
        <time>2024-12-02T15:04:43Z</time>
      </trkpt>
      <trkpt lat="43.59417" lon="6.38629">
        <ele>588.5</ele>
        <time>2024-12-02T15:04:51Z</time>
      </trkpt>
      <trkpt lat="43.59414" lon="6.38641">
        <ele>588.5</ele>
        <time>2024-12-02T15:04:59Z</time>
      </trkpt>
      <trkpt lat="43.5941" lon="6.38653">
        <ele>588.5</ele>
        <time>2024-12-02T15:05:08Z</time>
      </trkpt>
      <trkpt lat="43.59405" lon="6.38665">
        <ele>588.5</ele>
        <time>2024-12-02T15:05:16Z</time>
      </trkpt>
      <trkpt lat="43.594" lon="6.38677">
        <ele>588.6</ele>
        <time>2024-12-02T15:05:24Z</time>
      </trkpt>
      <trkpt lat="43.59394" lon="6.38688">
        <ele>588.7</ele>
        <time>2024-12-02T15:05:36Z</time>
      </trkpt>
      <trkpt lat="43.5939" lon="6.387">
        <ele>588.6</ele>
        <time>2024-12-02T15:05:44Z</time>
      </trkpt>
      <trkpt lat="43.59386" lon="6.38712">
        <ele>588.6</ele>
        <time>2024-12-02T15:05:52Z</time>
      </trkpt>
      <trkpt lat="43.59381" lon="6.38724">
        <ele>588.6</ele>
        <time>2024-12-02T15:06:00Z</time>
      </trkpt>
      <trkpt lat="43.59377" lon="6.38735">
        <ele>588.6</ele>
        <time>2024-12-02T15:06:08Z</time>
      </trkpt>
      <trkpt lat="43.59372" lon="6.38747">
        <ele>588.7</ele>
        <time>2024-12-02T15:06:16Z</time>
      </trkpt>
      <trkpt lat="43.59368" lon="6.38759">
        <ele>588.9</ele>
        <time>2024-12-02T15:06:24Z</time>
      </trkpt>
      <trkpt lat="43.59363" lon="6.3877">
        <ele>588.7</ele>
        <time>2024-12-02T15:06:33Z</time>
      </trkpt>
      <trkpt lat="43.59358" lon="6.38782">
        <ele>588.6</ele>
        <time>2024-12-02T15:06:41Z</time>
      </trkpt>
      <trkpt lat="43.59354" lon="6.38794">
        <ele>588.6</ele>
        <time>2024-12-02T15:06:49Z</time>
      </trkpt>
      <trkpt lat="43.59349" lon="6.38805">
        <ele>588.5</ele>
        <time>2024-12-02T15:06:57Z</time>
      </trkpt>
      <trkpt lat="43.59342" lon="6.38815">
        <ele>588.4</ele>
        <time>2024-12-02T15:07:05Z</time>
      </trkpt>
      <trkpt lat="43.59336" lon="6.38825">
        <ele>588.6</ele>
        <time>2024-12-02T15:07:16Z</time>
      </trkpt>
      <trkpt lat="43.5933" lon="6.38835">
        <ele>588.6</ele>
        <time>2024-12-02T15:07:24Z</time>
      </trkpt>
      <trkpt lat="43.59323" lon="6.38845">
        <ele>588.7</ele>
        <time>2024-12-02T15:07:32Z</time>
      </trkpt>
      <trkpt lat="43.59317" lon="6.38854">
        <ele>588.9</ele>
        <time>2024-12-02T15:07:40Z</time>
      </trkpt>
      <trkpt lat="43.59311" lon="6.38865">
        <ele>589</ele>
        <time>2024-12-02T15:07:48Z</time>
      </trkpt>
      <trkpt lat="43.59306" lon="6.38876">
        <ele>588.9</ele>
        <time>2024-12-02T15:07:57Z</time>
      </trkpt>
      <trkpt lat="43.59301" lon="6.38887">
        <ele>588.9</ele>
        <time>2024-12-02T15:08:05Z</time>
      </trkpt>
      <trkpt lat="43.59296" lon="6.38899">
        <ele>588.8</ele>
        <time>2024-12-02T15:08:14Z</time>
      </trkpt>
      <trkpt lat="43.59291" lon="6.38911">
        <ele>588.6</ele>
        <time>2024-12-02T15:08:23Z</time>
      </trkpt>
      <trkpt lat="43.59284" lon="6.38922">
        <ele>588.7</ele>
        <time>2024-12-02T15:08:31Z</time>
      </trkpt>
      <trkpt lat="43.59276" lon="6.38926">
        <ele>588.6</ele>
        <time>2024-12-02T15:08:40Z</time>
      </trkpt>
      <trkpt lat="43.59267" lon="6.38923">
        <ele>588.6</ele>
        <time>2024-12-02T15:08:49Z</time>
      </trkpt>
      <trkpt lat="43.59257" lon="6.38922">
        <ele>588.8</ele>
        <time>2024-12-02T15:08:58Z</time>
      </trkpt>
      <trkpt lat="43.59248" lon="6.38922">
        <ele>588.9</ele>
        <time>2024-12-02T15:09:07Z</time>
      </trkpt>
      <trkpt lat="43.59238" lon="6.38925">
        <ele>589</ele>
        <time>2024-12-02T15:09:15Z</time>
      </trkpt>
      <trkpt lat="43.59229" lon="6.38931">
        <ele>589</ele>
        <time>2024-12-02T15:09:25Z</time>
      </trkpt>
      <trkpt lat="43.5922" lon="6.38937">
        <ele>589</ele>
        <time>2024-12-02T15:09:33Z</time>
      </trkpt>
      <trkpt lat="43.59211" lon="6.38941">
        <ele>589.2</ele>
        <time>2024-12-02T15:09:41Z</time>
      </trkpt>
      <trkpt lat="43.59202" lon="6.38944">
        <ele>589.2</ele>
        <time>2024-12-02T15:09:49Z</time>
      </trkpt>
      <trkpt lat="43.59192" lon="6.38944">
        <ele>589.2</ele>
        <time>2024-12-02T15:09:57Z</time>
      </trkpt>
      <trkpt lat="43.59183" lon="6.38942">
        <ele>588.9</ele>
        <time>2024-12-02T15:10:05Z</time>
      </trkpt>
      <trkpt lat="43.59173" lon="6.38938">
        <ele>589</ele>
        <time>2024-12-02T15:10:14Z</time>
      </trkpt>
      <trkpt lat="43.59164" lon="6.38939">
        <ele>589.3</ele>
        <time>2024-12-02T15:10:24Z</time>
      </trkpt>
      <trkpt lat="43.59154" lon="6.38939">
        <ele>589.4</ele>
        <time>2024-12-02T15:10:33Z</time>
      </trkpt>
      <trkpt lat="43.59145" lon="6.38944">
        <ele>589.5</ele>
        <time>2024-12-02T15:10:42Z</time>
      </trkpt>
      <trkpt lat="43.59137" lon="6.38951">
        <ele>589.6</ele>
        <time>2024-12-02T15:10:50Z</time>
      </trkpt>
      <trkpt lat="43.59129" lon="6.38957">
        <ele>589.7</ele>
        <time>2024-12-02T15:10:58Z</time>
      </trkpt>
      <trkpt lat="43.5912" lon="6.38959">
        <ele>590</ele>
        <time>2024-12-02T15:11:06Z</time>
      </trkpt>
      <trkpt lat="43.59111" lon="6.38958">
        <ele>590.2</ele>
        <time>2024-12-02T15:11:15Z</time>
      </trkpt>
      <trkpt lat="43.59101" lon="6.38956">
        <ele>590.4</ele>
        <time>2024-12-02T15:11:24Z</time>
      </trkpt>
      <trkpt lat="43.59092" lon="6.38953">
        <ele>590.7</ele>
        <time>2024-12-02T15:11:33Z</time>
      </trkpt>
      <trkpt lat="43.59082" lon="6.38949">
        <ele>590.7</ele>
        <time>2024-12-02T15:11:45Z</time>
      </trkpt>
      <trkpt lat="43.59073" lon="6.38945">
        <ele>590.7</ele>
        <time>2024-12-02T15:11:53Z</time>
      </trkpt>
      <trkpt lat="43.59064" lon="6.38941">
        <ele>590.8</ele>
        <time>2024-12-02T15:12:01Z</time>
      </trkpt>
      <trkpt lat="43.59054" lon="6.38938">
        <ele>591</ele>
        <time>2024-12-02T15:12:09Z</time>
      </trkpt>
      <trkpt lat="43.59045" lon="6.38936">
        <ele>591</ele>
        <time>2024-12-02T15:12:17Z</time>
      </trkpt>
      <trkpt lat="43.59035" lon="6.38934">
        <ele>591.3</ele>
        <time>2024-12-02T15:12:24Z</time>
      </trkpt>
      <trkpt lat="43.59026" lon="6.38931">
        <ele>591.4</ele>
        <time>2024-12-02T15:12:33Z</time>
      </trkpt>
      <trkpt lat="43.59016" lon="6.38931">
        <ele>591.5</ele>
        <time>2024-12-02T15:12:42Z</time>
      </trkpt>
      <trkpt lat="43.59006" lon="6.3893">
        <ele>591.9</ele>
        <time>2024-12-02T15:12:51Z</time>
      </trkpt>
      <trkpt lat="43.58997" lon="6.38927">
        <ele>592.2</ele>
        <time>2024-12-02T15:12:59Z</time>
      </trkpt>
      <trkpt lat="43.58989" lon="6.38919">
        <ele>592.4</ele>
        <time>2024-12-02T15:13:08Z</time>
      </trkpt>
      <trkpt lat="43.58984" lon="6.38906">
        <ele>592.4</ele>
        <time>2024-12-02T15:13:17Z</time>
      </trkpt>
      <trkpt lat="43.5898" lon="6.38895">
        <ele>592.3</ele>
        <time>2024-12-02T15:13:24Z</time>
      </trkpt>
      <trkpt lat="43.58976" lon="6.38883">
        <ele>592.3</ele>
        <time>2024-12-02T15:13:33Z</time>
      </trkpt>
      <trkpt lat="43.58972" lon="6.3887">
        <ele>592.6</ele>
        <time>2024-12-02T15:13:44Z</time>
      </trkpt>
      <trkpt lat="43.58969" lon="6.38857">
        <ele>592.6</ele>
        <time>2024-12-02T15:13:53Z</time>
      </trkpt>
      <trkpt lat="43.58965" lon="6.38845">
        <ele>592.8</ele>
        <time>2024-12-02T15:14:01Z</time>
      </trkpt>
      <trkpt lat="43.58961" lon="6.38833">
        <ele>593.1</ele>
        <time>2024-12-02T15:14:09Z</time>
      </trkpt>
      <trkpt lat="43.58958" lon="6.38821">
        <ele>593.4</ele>
        <time>2024-12-02T15:14:16Z</time>
      </trkpt>
      <trkpt lat="43.58954" lon="6.38808">
        <ele>593.7</ele>
        <time>2024-12-02T15:14:26Z</time>
      </trkpt>
      <trkpt lat="43.58952" lon="6.38796">
        <ele>594.2</ele>
        <time>2024-12-02T15:14:34Z</time>
      </trkpt>
      <trkpt lat="43.58954" lon="6.38783">
        <ele>594.7</ele>
        <time>2024-12-02T15:14:44Z</time>
      </trkpt>
      <trkpt lat="43.58962" lon="6.38776">
        <ele>595.2</ele>
        <time>2024-12-02T15:14:56Z</time>
      </trkpt>
      <trkpt lat="43.58972" lon="6.38776">
        <ele>595.5</ele>
        <time>2024-12-02T15:15:04Z</time>
      </trkpt>
      <trkpt lat="43.58982" lon="6.38774">
        <ele>595.5</ele>
        <time>2024-12-02T15:15:12Z</time>
      </trkpt>
      <trkpt lat="43.58991" lon="6.38771">
        <ele>595.5</ele>
        <time>2024-12-02T15:15:20Z</time>
      </trkpt>
      <trkpt lat="43.59" lon="6.38768">
        <ele>595.5</ele>
        <time>2024-12-02T15:15:29Z</time>
      </trkpt>
      <trkpt lat="43.59009" lon="6.38766">
        <ele>595.6</ele>
        <time>2024-12-02T15:15:37Z</time>
      </trkpt>
      <trkpt lat="43.59018" lon="6.38761">
        <ele>595.8</ele>
        <time>2024-12-02T15:15:45Z</time>
      </trkpt>
      <trkpt lat="43.59027" lon="6.38757">
        <ele>595.8</ele>
        <time>2024-12-02T15:15:57Z</time>
      </trkpt>
      <trkpt lat="43.59036" lon="6.38752">
        <ele>596.1</ele>
        <time>2024-12-02T15:16:07Z</time>
      </trkpt>
      <trkpt lat="43.59045" lon="6.38748">
        <ele>596.2</ele>
        <time>2024-12-02T15:16:17Z</time>
      </trkpt>
      <trkpt lat="43.59054" lon="6.38744">
        <ele>596.4</ele>
        <time>2024-12-02T15:16:26Z</time>
      </trkpt>
      <trkpt lat="43.59063" lon="6.3874">
        <ele>596.5</ele>
        <time>2024-12-02T15:16:36Z</time>
      </trkpt>
      <trkpt lat="43.59071" lon="6.38736">
        <ele>596.5</ele>
        <time>2024-12-02T15:16:45Z</time>
      </trkpt>
      <trkpt lat="43.59081" lon="6.38734">
        <ele>596.4</ele>
        <time>2024-12-02T15:16:54Z</time>
      </trkpt>
      <trkpt lat="43.5909" lon="6.38732">
        <ele>596.4</ele>
        <time>2024-12-02T15:17:03Z</time>
      </trkpt>
      <trkpt lat="43.59099" lon="6.3873">
        <ele>596.1</ele>
        <time>2024-12-02T15:17:13Z</time>
      </trkpt>
      <trkpt lat="43.59107" lon="6.38726">
        <ele>595.3</ele>
        <time>2024-12-02T15:17:53Z</time>
      </trkpt>
      <trkpt lat="43.59107" lon="6.38726">
        <ele>595.5</ele>
        <time>2024-12-02T15:18:01Z</time>
      </trkpt>
    </trkseg>
  </trk>
</gpx>